<?xml version="1.0" encoding="UTF-8" standalone="no" ?>
<gpx xmlns="http://www.topografix.com/GPX/1/1" xmlns:xsi="http://www.w3.org/2001/XMLSchema-instance" xsi:schemaLocation="http://www.topografix.com/GPX/1/1 http://www.topografix.com/GPX/1/1/gpx.xsd" version="1.1" creator="VisuGPX - https://www.visugpx.com">
  <metadata>
    <name>Caucalières Marche 13 avr. 2021 à 08:58</name>
  </metadata>
  <trk>
    <name><![CDATA[Caucalières Marche 13 avr. 2021 à 08:58]]></name>
    <trkseg>
      <trkpt lat="43.52176" lon="2.31182">
        <ele>207.36286150318</ele>
        <time>2021-04-13T06:58:48Z</time>
      </trkpt>
      <trkpt lat="43.52171" lon="2.31189">
        <ele>193.11454909788</ele>
        <time>2021-04-13T06:58:53Z</time>
      </trkpt>
      <trkpt lat="43.52174" lon="2.312">
        <ele>184.72210625717</ele>
        <time>2021-04-13T07:03:17Z</time>
      </trkpt>
      <trkpt lat="43.52179" lon="2.31208">
        <ele>188.52266114118</ele>
        <time>2021-04-13T07:03:38Z</time>
      </trkpt>
      <trkpt lat="43.52184" lon="2.31216">
        <ele>190.2362458568</ele>
        <time>2021-04-13T07:03:48Z</time>
      </trkpt>
      <trkpt lat="43.52191" lon="2.31222">
        <ele>190.59649388027</ele>
        <time>2021-04-13T07:03:53Z</time>
      </trkpt>
      <trkpt lat="43.52197" lon="2.31229">
        <ele>191.44057358095</ele>
        <time>2021-04-13T07:03:57Z</time>
      </trkpt>
      <trkpt lat="43.52203" lon="2.31236">
        <ele>192.56981729708</ele>
        <time>2021-04-13T07:04:03Z</time>
      </trkpt>
      <trkpt lat="43.5221" lon="2.31243">
        <ele>194.68950060376</ele>
        <time>2021-04-13T07:04:51Z</time>
      </trkpt>
      <trkpt lat="43.52217" lon="2.31239">
        <ele>198.43365071842</ele>
        <time>2021-04-13T07:05:51Z</time>
      </trkpt>
      <trkpt lat="43.52222" lon="2.31229">
        <ele>200.78586480575</ele>
        <time>2021-04-13T07:06:02Z</time>
      </trkpt>
      <trkpt lat="43.52226" lon="2.31219">
        <ele>200.14975590753</ele>
        <time>2021-04-13T07:06:10Z</time>
      </trkpt>
      <trkpt lat="43.52231" lon="2.31211">
        <ele>197.8744968913</ele>
        <time>2021-04-13T07:06:16Z</time>
      </trkpt>
      <trkpt lat="43.52238" lon="2.31204">
        <ele>195.17084553829</ele>
        <time>2021-04-13T07:06:23Z</time>
      </trkpt>
      <trkpt lat="43.52245" lon="2.31199">
        <ele>194.44439867873</ele>
        <time>2021-04-13T07:06:30Z</time>
      </trkpt>
      <trkpt lat="43.52252" lon="2.31192">
        <ele>194.57068418289</ele>
        <time>2021-04-13T07:06:37Z</time>
      </trkpt>
      <trkpt lat="43.52259" lon="2.31184">
        <ele>194.18217533211</ele>
        <time>2021-04-13T07:06:46Z</time>
      </trkpt>
      <trkpt lat="43.52265" lon="2.31177">
        <ele>194.59924970642</ele>
        <time>2021-04-13T07:06:54Z</time>
      </trkpt>
      <trkpt lat="43.5227" lon="2.31169">
        <ele>194.54447857846</ele>
        <time>2021-04-13T07:07:00Z</time>
      </trkpt>
      <trkpt lat="43.52275" lon="2.31159">
        <ele>193.91522318742</ele>
        <time>2021-04-13T07:07:07Z</time>
      </trkpt>
      <trkpt lat="43.52281" lon="2.31151">
        <ele>194.31256543699</ele>
        <time>2021-04-13T07:07:15Z</time>
      </trkpt>
      <trkpt lat="43.52288" lon="2.31144">
        <ele>195.46007287161</ele>
        <time>2021-04-13T07:07:22Z</time>
      </trkpt>
      <trkpt lat="43.52295" lon="2.31138">
        <ele>196.75614277885</ele>
        <time>2021-04-13T07:07:29Z</time>
      </trkpt>
      <trkpt lat="43.52303" lon="2.31142">
        <ele>197.32738602239</ele>
        <time>2021-04-13T07:07:41Z</time>
      </trkpt>
      <trkpt lat="43.5231" lon="2.3115">
        <ele>194.99262504177</ele>
        <time>2021-04-13T07:08:21Z</time>
      </trkpt>
      <trkpt lat="43.52312" lon="2.31161">
        <ele>192.53934662591</ele>
        <time>2021-04-13T07:08:31Z</time>
      </trkpt>
      <trkpt lat="43.52305" lon="2.31167">
        <ele>196.20432603043</ele>
        <time>2021-04-13T07:09:23Z</time>
      </trkpt>
      <trkpt lat="43.52297" lon="2.31168">
        <ele>202.40014472167</ele>
        <time>2021-04-13T07:09:32Z</time>
      </trkpt>
      <trkpt lat="43.52291" lon="2.31177">
        <ele>202.60259553212</ele>
        <time>2021-04-13T07:09:55Z</time>
      </trkpt>
      <trkpt lat="43.52286" lon="2.31186">
        <ele>203.5846763874</ele>
        <time>2021-04-13T07:09:59Z</time>
      </trkpt>
      <trkpt lat="43.5228" lon="2.31194">
        <ele>204.73212271281</ele>
        <time>2021-04-13T07:10:05Z</time>
      </trkpt>
      <trkpt lat="43.52276" lon="2.31205">
        <ele>206.48139039312</ele>
        <time>2021-04-13T07:10:15Z</time>
      </trkpt>
      <trkpt lat="43.52273" lon="2.31215">
        <ele>207.52530593508</ele>
        <time>2021-04-13T07:10:25Z</time>
      </trkpt>
      <trkpt lat="43.52267" lon="2.31222">
        <ele>209.5344368549</ele>
        <time>2021-04-13T07:10:34Z</time>
      </trkpt>
      <trkpt lat="43.5226" lon="2.31228">
        <ele>211.74149887405</ele>
        <time>2021-04-13T07:10:46Z</time>
      </trkpt>
      <trkpt lat="43.52263" lon="2.31239">
        <ele>211.70262858685</ele>
        <time>2021-04-13T07:11:14Z</time>
      </trkpt>
      <trkpt lat="43.52258" lon="2.31247">
        <ele>215.25448210438</ele>
        <time>2021-04-13T07:11:30Z</time>
      </trkpt>
      <trkpt lat="43.52257" lon="2.31259">
        <ele>221.37237228139</ele>
        <time>2021-04-13T07:11:56Z</time>
      </trkpt>
      <trkpt lat="43.52257" lon="2.3127">
        <ele>222.42441863808</ele>
        <time>2021-04-13T07:12:15Z</time>
      </trkpt>
      <trkpt lat="43.52255" lon="2.31281">
        <ele>221.98375241638</ele>
        <time>2021-04-13T07:12:25Z</time>
      </trkpt>
      <trkpt lat="43.5226" lon="2.3129">
        <ele>223.97924170536</ele>
        <time>2021-04-13T07:12:35Z</time>
      </trkpt>
      <trkpt lat="43.5226" lon="2.31302">
        <ele>228.62871441235</ele>
        <time>2021-04-13T07:12:49Z</time>
      </trkpt>
      <trkpt lat="43.52257" lon="2.31313">
        <ele>231.21849613275</ele>
        <time>2021-04-13T07:13:17Z</time>
      </trkpt>
      <trkpt lat="43.52255" lon="2.31323">
        <ele>232.11970301901</ele>
        <time>2021-04-13T07:13:39Z</time>
      </trkpt>
      <trkpt lat="43.52256" lon="2.31335">
        <ele>234.5739219646</ele>
        <time>2021-04-13T07:13:47Z</time>
      </trkpt>
      <trkpt lat="43.52251" lon="2.31346">
        <ele>236.612256632</ele>
        <time>2021-04-13T07:14:13Z</time>
      </trkpt>
      <trkpt lat="43.52248" lon="2.31356">
        <ele>238.60334446468</ele>
        <time>2021-04-13T07:14:57Z</time>
      </trkpt>
      <trkpt lat="43.52248" lon="2.31368">
        <ele>240.31325174175</ele>
        <time>2021-04-13T07:15:16Z</time>
      </trkpt>
      <trkpt lat="43.52248" lon="2.31379">
        <ele>242.35460364816</ele>
        <time>2021-04-13T07:15:33Z</time>
      </trkpt>
      <trkpt lat="43.52247" lon="2.31395">
        <ele>244.68620776638</ele>
        <time>2021-04-13T07:15:37Z</time>
      </trkpt>
      <trkpt lat="43.52248" lon="2.31406">
        <ele>246.34213645274</ele>
        <time>2021-04-13T07:15:42Z</time>
      </trkpt>
      <trkpt lat="43.52247" lon="2.31418">
        <ele>249.94409324001</ele>
        <time>2021-04-13T07:16:14Z</time>
      </trkpt>
      <trkpt lat="43.52247" lon="2.3143">
        <ele>253.32069461702</ele>
        <time>2021-04-13T07:16:42Z</time>
      </trkpt>
      <trkpt lat="43.52247" lon="2.31443">
        <ele>253.37432115698</ele>
        <time>2021-04-13T07:16:49Z</time>
      </trkpt>
      <trkpt lat="43.52244" lon="2.31453">
        <ele>253.63218533368</ele>
        <time>2021-04-13T07:17:06Z</time>
      </trkpt>
      <trkpt lat="43.52238" lon="2.31462">
        <ele>259.77749266304</ele>
        <time>2021-04-13T07:17:14Z</time>
      </trkpt>
      <trkpt lat="43.52233" lon="2.31472">
        <ele>268.06592907548</ele>
        <time>2021-04-13T07:19:48Z</time>
      </trkpt>
      <trkpt lat="43.52239" lon="2.31481">
        <ele>268.90349363621</ele>
        <time>2021-04-13T07:21:22Z</time>
      </trkpt>
      <trkpt lat="43.52236" lon="2.31492">
        <ele>268.31604103141</ele>
        <time>2021-04-13T07:21:30Z</time>
      </trkpt>
      <trkpt lat="43.52233" lon="2.31504">
        <ele>267.6902680556</ele>
        <time>2021-04-13T07:21:38Z</time>
      </trkpt>
      <trkpt lat="43.52235" lon="2.31516">
        <ele>269.88788936379</ele>
        <time>2021-04-13T07:21:55Z</time>
      </trkpt>
      <trkpt lat="43.52233" lon="2.31527">
        <ele>271.35290476475</ele>
        <time>2021-04-13T07:22:02Z</time>
      </trkpt>
      <trkpt lat="43.52234" lon="2.31538">
        <ele>271.91835260641</ele>
        <time>2021-04-13T07:22:09Z</time>
      </trkpt>
      <trkpt lat="43.52232" lon="2.31549">
        <ele>271.21987722363</ele>
        <time>2021-04-13T07:22:17Z</time>
      </trkpt>
      <trkpt lat="43.52231" lon="2.3156">
        <ele>270.70665784133</ele>
        <time>2021-04-13T07:22:23Z</time>
      </trkpt>
      <trkpt lat="43.52228" lon="2.31571">
        <ele>271.2124858705</ele>
        <time>2021-04-13T07:22:31Z</time>
      </trkpt>
      <trkpt lat="43.52222" lon="2.3158">
        <ele>270.60103754771</ele>
        <time>2021-04-13T07:22:42Z</time>
      </trkpt>
      <trkpt lat="43.52217" lon="2.31588">
        <ele>269.82176000633</ele>
        <time>2021-04-13T07:22:49Z</time>
      </trkpt>
      <trkpt lat="43.52213" lon="2.31599">
        <ele>268.76662255342</ele>
        <time>2021-04-13T07:22:55Z</time>
      </trkpt>
      <trkpt lat="43.52215" lon="2.31611">
        <ele>267.67695952286</ele>
        <time>2021-04-13T07:23:11Z</time>
      </trkpt>
      <trkpt lat="43.52217" lon="2.31623">
        <ele>267.19370022231</ele>
        <time>2021-04-13T07:23:17Z</time>
      </trkpt>
      <trkpt lat="43.52216" lon="2.31634">
        <ele>265.56190086905</ele>
        <time>2021-04-13T07:23:25Z</time>
      </trkpt>
      <trkpt lat="43.52215" lon="2.31645">
        <ele>264.24021763715</ele>
        <time>2021-04-13T07:23:30Z</time>
      </trkpt>
      <trkpt lat="43.52213" lon="2.31656">
        <ele>263.94681710329</ele>
        <time>2021-04-13T07:23:38Z</time>
      </trkpt>
      <trkpt lat="43.5221" lon="2.31666">
        <ele>263.84049145456</ele>
        <time>2021-04-13T07:23:46Z</time>
      </trkpt>
      <trkpt lat="43.5221" lon="2.31679">
        <ele>266.36575186421</ele>
        <time>2021-04-13T07:23:54Z</time>
      </trkpt>
      <trkpt lat="43.52209" lon="2.3169">
        <ele>269.16774100634</ele>
        <time>2021-04-13T07:24:01Z</time>
      </trkpt>
      <trkpt lat="43.52212" lon="2.31701">
        <ele>271.59315210192</ele>
        <time>2021-04-13T07:24:10Z</time>
      </trkpt>
      <trkpt lat="43.52215" lon="2.31711">
        <ele>273.77585346433</ele>
        <time>2021-04-13T07:24:17Z</time>
      </trkpt>
      <trkpt lat="43.52213" lon="2.31723">
        <ele>276.14071585531</ele>
        <time>2021-04-13T07:24:34Z</time>
      </trkpt>
      <trkpt lat="43.5221" lon="2.31733">
        <ele>275.80448697761</ele>
        <time>2021-04-13T07:25:07Z</time>
      </trkpt>
      <trkpt lat="43.52206" lon="2.31743">
        <ele>273.67033127047</ele>
        <time>2021-04-13T07:25:14Z</time>
      </trkpt>
      <trkpt lat="43.52206" lon="2.31755">
        <ele>270.56848680211</ele>
        <time>2021-04-13T07:25:23Z</time>
      </trkpt>
      <trkpt lat="43.52207" lon="2.31767">
        <ele>267.2183343999</ele>
        <time>2021-04-13T07:25:33Z</time>
      </trkpt>
      <trkpt lat="43.52209" lon="2.31777">
        <ele>269.33422230239</ele>
        <time>2021-04-13T07:25:41Z</time>
      </trkpt>
      <trkpt lat="43.5221" lon="2.31789">
        <ele>272.58978192769</ele>
        <time>2021-04-13T07:25:48Z</time>
      </trkpt>
      <trkpt lat="43.52213" lon="2.318">
        <ele>273.1235607602</ele>
        <time>2021-04-13T07:25:55Z</time>
      </trkpt>
      <trkpt lat="43.52215" lon="2.31812">
        <ele>276.03152423958</ele>
        <time>2021-04-13T07:26:04Z</time>
      </trkpt>
      <trkpt lat="43.52217" lon="2.31823">
        <ele>277.94723705483</ele>
        <time>2021-04-13T07:26:12Z</time>
      </trkpt>
      <trkpt lat="43.52219" lon="2.31834">
        <ele>277.96965882237</ele>
        <time>2021-04-13T07:26:19Z</time>
      </trkpt>
      <trkpt lat="43.52222" lon="2.31845">
        <ele>278.83018205115</ele>
        <time>2021-04-13T07:26:29Z</time>
      </trkpt>
      <trkpt lat="43.52224" lon="2.31857">
        <ele>280.82493895136</ele>
        <time>2021-04-13T07:26:37Z</time>
      </trkpt>
      <trkpt lat="43.52226" lon="2.31868">
        <ele>283.9512780155</ele>
        <time>2021-04-13T07:26:46Z</time>
      </trkpt>
      <trkpt lat="43.52227" lon="2.3188">
        <ele>283.74003176757</ele>
        <time>2021-04-13T07:26:54Z</time>
      </trkpt>
      <trkpt lat="43.52223" lon="2.3189">
        <ele>283.68555797555</ele>
        <time>2021-04-13T07:27:02Z</time>
      </trkpt>
      <trkpt lat="43.52217" lon="2.31898">
        <ele>284.0403707663</ele>
        <time>2021-04-13T07:27:08Z</time>
      </trkpt>
      <trkpt lat="43.52214" lon="2.3191">
        <ele>284.43399669744</ele>
        <time>2021-04-13T07:27:18Z</time>
      </trkpt>
      <trkpt lat="43.52207" lon="2.31917">
        <ele>281.5859676837</ele>
        <time>2021-04-13T07:27:48Z</time>
      </trkpt>
      <trkpt lat="43.52204" lon="2.31926">
        <ele>280.19677140276</ele>
        <time>2021-04-13T07:27:57Z</time>
      </trkpt>
      <trkpt lat="43.52202" lon="2.31938">
        <ele>278.3473198604</ele>
        <time>2021-04-13T07:28:03Z</time>
      </trkpt>
      <trkpt lat="43.522" lon="2.3195">
        <ele>276.80708698365</ele>
        <time>2021-04-13T07:28:10Z</time>
      </trkpt>
      <trkpt lat="43.522" lon="2.31961">
        <ele>275.55463369465</ele>
        <time>2021-04-13T07:28:18Z</time>
      </trkpt>
      <trkpt lat="43.52199" lon="2.31973">
        <ele>274.68067198132</ele>
        <time>2021-04-13T07:28:24Z</time>
      </trkpt>
      <trkpt lat="43.52196" lon="2.31984">
        <ele>272.49817040199</ele>
        <time>2021-04-13T07:28:31Z</time>
      </trkpt>
      <trkpt lat="43.52196" lon="2.31996">
        <ele>272.39897531727</ele>
        <time>2021-04-13T07:28:41Z</time>
      </trkpt>
      <trkpt lat="43.52203" lon="2.32004">
        <ele>271.10086164308</ele>
        <time>2021-04-13T07:28:51Z</time>
      </trkpt>
      <trkpt lat="43.52209" lon="2.32013">
        <ele>272.72589906744</ele>
        <time>2021-04-13T07:28:57Z</time>
      </trkpt>
      <trkpt lat="43.52216" lon="2.32018">
        <ele>274.03654770464</ele>
        <time>2021-04-13T07:29:06Z</time>
      </trkpt>
      <trkpt lat="43.52224" lon="2.32019">
        <ele>274.7890215099</ele>
        <time>2021-04-13T07:29:14Z</time>
      </trkpt>
      <trkpt lat="43.52233" lon="2.32023">
        <ele>275.26710625647</ele>
        <time>2021-04-13T07:29:20Z</time>
      </trkpt>
      <trkpt lat="43.52241" lon="2.32026">
        <ele>276.19619213347</ele>
        <time>2021-04-13T07:29:26Z</time>
      </trkpt>
      <trkpt lat="43.52249" lon="2.32029">
        <ele>277.59597446645</ele>
        <time>2021-04-13T07:29:34Z</time>
      </trkpt>
      <trkpt lat="43.52256" lon="2.32022">
        <ele>278.56547584358</ele>
        <time>2021-04-13T07:29:42Z</time>
      </trkpt>
      <trkpt lat="43.5226" lon="2.32012">
        <ele>279.03501500435</ele>
        <time>2021-04-13T07:29:49Z</time>
      </trkpt>
      <trkpt lat="43.52265" lon="2.32003">
        <ele>279.45618361733</ele>
        <time>2021-04-13T07:29:55Z</time>
      </trkpt>
      <trkpt lat="43.52272" lon="2.31996">
        <ele>279.10205574886</ele>
        <time>2021-04-13T07:30:01Z</time>
      </trkpt>
      <trkpt lat="43.5228" lon="2.31999">
        <ele>277.3963833184</ele>
        <time>2021-04-13T07:30:09Z</time>
      </trkpt>
      <trkpt lat="43.52287" lon="2.32006">
        <ele>277.2214622086</ele>
        <time>2021-04-13T07:30:16Z</time>
      </trkpt>
      <trkpt lat="43.52293" lon="2.32014">
        <ele>277.82519790635</ele>
        <time>2021-04-13T07:30:24Z</time>
      </trkpt>
      <trkpt lat="43.52299" lon="2.32023">
        <ele>279.33369782054</ele>
        <time>2021-04-13T07:30:32Z</time>
      </trkpt>
      <trkpt lat="43.52305" lon="2.32032">
        <ele>281.85609057059</ele>
        <time>2021-04-13T07:30:38Z</time>
      </trkpt>
      <trkpt lat="43.52312" lon="2.32039">
        <ele>286.01161075628</ele>
        <time>2021-04-13T07:30:46Z</time>
      </trkpt>
      <trkpt lat="43.52315" lon="2.3205">
        <ele>286.37984482683</ele>
        <time>2021-04-13T07:30:57Z</time>
      </trkpt>
      <trkpt lat="43.52321" lon="2.32057">
        <ele>286.74814617598</ele>
        <time>2021-04-13T07:31:03Z</time>
      </trkpt>
      <trkpt lat="43.52326" lon="2.32066">
        <ele>286.10068422282</ele>
        <time>2021-04-13T07:31:10Z</time>
      </trkpt>
      <trkpt lat="43.52332" lon="2.32075">
        <ele>286.25984857683</ele>
        <time>2021-04-13T07:31:18Z</time>
      </trkpt>
      <trkpt lat="43.52336" lon="2.32085">
        <ele>284.07863246324</ele>
        <time>2021-04-13T07:31:27Z</time>
      </trkpt>
      <trkpt lat="43.52341" lon="2.32094">
        <ele>283.11857444904</ele>
        <time>2021-04-13T07:31:36Z</time>
      </trkpt>
      <trkpt lat="43.52345" lon="2.32105">
        <ele>283.4744753434</ele>
        <time>2021-04-13T07:31:43Z</time>
      </trkpt>
      <trkpt lat="43.52348" lon="2.32117">
        <ele>283.99901851942</ele>
        <time>2021-04-13T07:31:51Z</time>
      </trkpt>
      <trkpt lat="43.5235" lon="2.32128">
        <ele>282.3928506639</ele>
        <time>2021-04-13T07:31:59Z</time>
      </trkpt>
      <trkpt lat="43.52353" lon="2.32139">
        <ele>281.02025191549</ele>
        <time>2021-04-13T07:32:07Z</time>
      </trkpt>
      <trkpt lat="43.52357" lon="2.32149">
        <ele>279.93692849847</ele>
        <time>2021-04-13T07:32:14Z</time>
      </trkpt>
      <trkpt lat="43.52361" lon="2.3216">
        <ele>281.35408982174</ele>
        <time>2021-04-13T07:32:22Z</time>
      </trkpt>
      <trkpt lat="43.52365" lon="2.32171">
        <ele>282.96049878385</ele>
        <time>2021-04-13T07:32:31Z</time>
      </trkpt>
      <trkpt lat="43.5237" lon="2.32181">
        <ele>283.50194231085</ele>
        <time>2021-04-13T07:32:39Z</time>
      </trkpt>
      <trkpt lat="43.52376" lon="2.3219">
        <ele>285.81718253331</ele>
        <time>2021-04-13T07:32:47Z</time>
      </trkpt>
      <trkpt lat="43.52382" lon="2.32197">
        <ele>287.2547901945</ele>
        <time>2021-04-13T07:32:54Z</time>
      </trkpt>
      <trkpt lat="43.52389" lon="2.32203">
        <ele>288.73744633247</ele>
        <time>2021-04-13T07:33:00Z</time>
      </trkpt>
      <trkpt lat="43.52395" lon="2.32209">
        <ele>290.48478001446</ele>
        <time>2021-04-13T07:33:06Z</time>
      </trkpt>
      <trkpt lat="43.52401" lon="2.32216">
        <ele>291.86784563684</ele>
        <time>2021-04-13T07:33:11Z</time>
      </trkpt>
      <trkpt lat="43.52407" lon="2.32225">
        <ele>292.42066615186</ele>
        <time>2021-04-13T07:33:18Z</time>
      </trkpt>
      <trkpt lat="43.52413" lon="2.32235">
        <ele>292.28687675113</ele>
        <time>2021-04-13T07:33:26Z</time>
      </trkpt>
      <trkpt lat="43.52418" lon="2.32244">
        <ele>293.26241866012</ele>
        <time>2021-04-13T07:33:34Z</time>
      </trkpt>
      <trkpt lat="43.52421" lon="2.32254">
        <ele>293.68108476523</ele>
        <time>2021-04-13T07:33:40Z</time>
      </trkpt>
      <trkpt lat="43.52427" lon="2.32263">
        <ele>295.02079240145</ele>
        <time>2021-04-13T07:33:48Z</time>
      </trkpt>
      <trkpt lat="43.52431" lon="2.32274">
        <ele>295.4265655077</ele>
        <time>2021-04-13T07:33:56Z</time>
      </trkpt>
      <trkpt lat="43.52435" lon="2.32284">
        <ele>296.31440351305</ele>
        <time>2021-04-13T07:34:03Z</time>
      </trkpt>
      <trkpt lat="43.52439" lon="2.32293">
        <ele>296.04274749775</ele>
        <time>2021-04-13T07:34:09Z</time>
      </trkpt>
      <trkpt lat="43.52443" lon="2.32304">
        <ele>293.82637500044</ele>
        <time>2021-04-13T07:34:17Z</time>
      </trkpt>
      <trkpt lat="43.52448" lon="2.32313">
        <ele>290.7143336511</ele>
        <time>2021-04-13T07:34:24Z</time>
      </trkpt>
      <trkpt lat="43.52453" lon="2.32322">
        <ele>289.4699338636</ele>
        <time>2021-04-13T07:34:31Z</time>
      </trkpt>
      <trkpt lat="43.52459" lon="2.3233">
        <ele>290.1582369393</ele>
        <time>2021-04-13T07:34:39Z</time>
      </trkpt>
      <trkpt lat="43.52465" lon="2.32338">
        <ele>292.42517177493</ele>
        <time>2021-04-13T07:34:46Z</time>
      </trkpt>
      <trkpt lat="43.52471" lon="2.32347">
        <ele>292.30842136264</ele>
        <time>2021-04-13T07:34:53Z</time>
      </trkpt>
      <trkpt lat="43.52478" lon="2.32355">
        <ele>293.31881171119</ele>
        <time>2021-04-13T07:35:01Z</time>
      </trkpt>
      <trkpt lat="43.52484" lon="2.32364">
        <ele>295.09459142781</ele>
        <time>2021-04-13T07:35:08Z</time>
      </trkpt>
      <trkpt lat="43.5249" lon="2.32373">
        <ele>296.41563976779</ele>
        <time>2021-04-13T07:35:16Z</time>
      </trkpt>
      <trkpt lat="43.52495" lon="2.32382">
        <ele>298.44031495179</ele>
        <time>2021-04-13T07:35:24Z</time>
      </trkpt>
      <trkpt lat="43.525" lon="2.32392">
        <ele>297.74677067922</ele>
        <time>2021-04-13T07:35:32Z</time>
      </trkpt>
      <trkpt lat="43.52506" lon="2.32401">
        <ele>298.0182405387</ele>
        <time>2021-04-13T07:35:39Z</time>
      </trkpt>
      <trkpt lat="43.52511" lon="2.32411">
        <ele>297.83401354711</ele>
        <time>2021-04-13T07:35:47Z</time>
      </trkpt>
      <trkpt lat="43.52517" lon="2.32419">
        <ele>298.02041321737</ele>
        <time>2021-04-13T07:35:53Z</time>
      </trkpt>
      <trkpt lat="43.52523" lon="2.32428">
        <ele>299.57950963566</ele>
        <time>2021-04-13T07:36:00Z</time>
      </trkpt>
      <trkpt lat="43.52527" lon="2.32437">
        <ele>293.80114702461</ele>
        <time>2021-04-13T07:37:27Z</time>
      </trkpt>
      <trkpt lat="43.52536" lon="2.32441">
        <ele>294.29330764074</ele>
        <time>2021-04-13T07:37:35Z</time>
      </trkpt>
      <trkpt lat="43.52544" lon="2.32444">
        <ele>294.99504456363</ele>
        <time>2021-04-13T07:37:43Z</time>
      </trkpt>
      <trkpt lat="43.52552" lon="2.32448">
        <ele>295.81484537974</ele>
        <time>2021-04-13T07:37:52Z</time>
      </trkpt>
      <trkpt lat="43.5256" lon="2.32452">
        <ele>295.98975560351</ele>
        <time>2021-04-13T07:38:01Z</time>
      </trkpt>
      <trkpt lat="43.52567" lon="2.32458">
        <ele>292.76419376291</ele>
        <time>2021-04-13T07:38:06Z</time>
      </trkpt>
      <trkpt lat="43.52572" lon="2.32468">
        <ele>290.13766722807</ele>
        <time>2021-04-13T07:38:15Z</time>
      </trkpt>
      <trkpt lat="43.52577" lon="2.32477">
        <ele>291.64746237712</ele>
        <time>2021-04-13T07:38:23Z</time>
      </trkpt>
      <trkpt lat="43.52582" lon="2.32487">
        <ele>292.89164562074</ele>
        <time>2021-04-13T07:38:31Z</time>
      </trkpt>
      <trkpt lat="43.52588" lon="2.32495">
        <ele>295.76791381543</ele>
        <time>2021-04-13T07:38:56Z</time>
      </trkpt>
      <trkpt lat="43.52592" lon="2.32506">
        <ele>297.00329081014</ele>
        <time>2021-04-13T07:39:03Z</time>
      </trkpt>
      <trkpt lat="43.52594" lon="2.32517">
        <ele>296.71374982014</ele>
        <time>2021-04-13T07:39:10Z</time>
      </trkpt>
      <trkpt lat="43.52597" lon="2.32528">
        <ele>297.25498806435</ele>
        <time>2021-04-13T07:39:17Z</time>
      </trkpt>
      <trkpt lat="43.52601" lon="2.32538">
        <ele>296.52793386379</ele>
        <time>2021-04-13T07:39:25Z</time>
      </trkpt>
      <trkpt lat="43.52605" lon="2.32548">
        <ele>294.83794618736</ele>
        <time>2021-04-13T07:39:31Z</time>
      </trkpt>
      <trkpt lat="43.52609" lon="2.32557">
        <ele>293.29452457829</ele>
        <time>2021-04-13T07:39:38Z</time>
      </trkpt>
      <trkpt lat="43.52613" lon="2.32567">
        <ele>293.8320875369</ele>
        <time>2021-04-13T07:39:45Z</time>
      </trkpt>
      <trkpt lat="43.52616" lon="2.32577">
        <ele>293.60843896044</ele>
        <time>2021-04-13T07:39:52Z</time>
      </trkpt>
      <trkpt lat="43.52619" lon="2.32587">
        <ele>292.58501701599</ele>
        <time>2021-04-13T07:40:00Z</time>
      </trkpt>
      <trkpt lat="43.52624" lon="2.32597">
        <ele>292.27509788606</ele>
        <time>2021-04-13T07:40:08Z</time>
      </trkpt>
      <trkpt lat="43.52628" lon="2.32608">
        <ele>292.01240577531</ele>
        <time>2021-04-13T07:40:17Z</time>
      </trkpt>
      <trkpt lat="43.52633" lon="2.32618">
        <ele>292.63522383005</ele>
        <time>2021-04-13T07:40:25Z</time>
      </trkpt>
      <trkpt lat="43.52638" lon="2.32627">
        <ele>293.96404522617</ele>
        <time>2021-04-13T07:40:32Z</time>
      </trkpt>
      <trkpt lat="43.52642" lon="2.32637">
        <ele>295.28999479389</ele>
        <time>2021-04-13T07:40:40Z</time>
      </trkpt>
      <trkpt lat="43.52646" lon="2.32648">
        <ele>297.5949075776</ele>
        <time>2021-04-13T07:40:48Z</time>
      </trkpt>
      <trkpt lat="43.52648" lon="2.32659">
        <ele>298.09858442613</ele>
        <time>2021-04-13T07:40:57Z</time>
      </trkpt>
      <trkpt lat="43.52647" lon="2.32671">
        <ele>295.95965920405</ele>
        <time>2021-04-13T07:41:04Z</time>
      </trkpt>
      <trkpt lat="43.52644" lon="2.32682">
        <ele>294.27095105437</ele>
        <time>2021-04-13T07:41:13Z</time>
      </trkpt>
      <trkpt lat="43.52643" lon="2.32694">
        <ele>293.10657058821</ele>
        <time>2021-04-13T07:41:24Z</time>
      </trkpt>
      <trkpt lat="43.52641" lon="2.32706">
        <ele>292.02282092916</ele>
        <time>2021-04-13T07:41:31Z</time>
      </trkpt>
      <trkpt lat="43.52637" lon="2.32716">
        <ele>290.73678132739</ele>
        <time>2021-04-13T07:41:39Z</time>
      </trkpt>
      <trkpt lat="43.52634" lon="2.32728">
        <ele>290.86399618542</ele>
        <time>2021-04-13T07:41:47Z</time>
      </trkpt>
      <trkpt lat="43.52634" lon="2.32739">
        <ele>292.48085759269</ele>
        <time>2021-04-13T07:41:54Z</time>
      </trkpt>
      <trkpt lat="43.52634" lon="2.32752">
        <ele>293.28072533159</ele>
        <time>2021-04-13T07:42:04Z</time>
      </trkpt>
      <trkpt lat="43.52635" lon="2.32763">
        <ele>294.04833935921</ele>
        <time>2021-04-13T07:42:11Z</time>
      </trkpt>
      <trkpt lat="43.52632" lon="2.32775">
        <ele>293.85001388235</ele>
        <time>2021-04-13T07:42:19Z</time>
      </trkpt>
      <trkpt lat="43.52631" lon="2.32787">
        <ele>294.07194206995</ele>
        <time>2021-04-13T07:42:25Z</time>
      </trkpt>
      <trkpt lat="43.52631" lon="2.32798">
        <ele>293.4081348689</ele>
        <time>2021-04-13T07:42:33Z</time>
      </trkpt>
      <trkpt lat="43.52633" lon="2.3281">
        <ele>294.50223309841</ele>
        <time>2021-04-13T07:42:40Z</time>
      </trkpt>
      <trkpt lat="43.52634" lon="2.32822">
        <ele>296.41248284611</ele>
        <time>2021-04-13T07:42:50Z</time>
      </trkpt>
      <trkpt lat="43.52634" lon="2.32833">
        <ele>296.48142110377</ele>
        <time>2021-04-13T07:43:03Z</time>
      </trkpt>
      <trkpt lat="43.52635" lon="2.32845">
        <ele>293.97318794031</ele>
        <time>2021-04-13T07:43:12Z</time>
      </trkpt>
      <trkpt lat="43.52636" lon="2.32857">
        <ele>293.8209437017</ele>
        <time>2021-04-13T07:43:20Z</time>
      </trkpt>
      <trkpt lat="43.52636" lon="2.32869">
        <ele>292.24830809241</ele>
        <time>2021-04-13T07:43:38Z</time>
      </trkpt>
      <trkpt lat="43.52636" lon="2.32881">
        <ele>289.85687391425</ele>
        <time>2021-04-13T07:43:46Z</time>
      </trkpt>
      <trkpt lat="43.52634" lon="2.32892">
        <ele>288.36612115266</ele>
        <time>2021-04-13T07:43:53Z</time>
      </trkpt>
      <trkpt lat="43.52633" lon="2.32903">
        <ele>286.3116742652</ele>
        <time>2021-04-13T07:43:59Z</time>
      </trkpt>
      <trkpt lat="43.52632" lon="2.32913">
        <ele>283.96221809481</ele>
        <time>2021-04-13T07:44:05Z</time>
      </trkpt>
      <trkpt lat="43.52632" lon="2.32925">
        <ele>281.46913699401</ele>
        <time>2021-04-13T07:44:12Z</time>
      </trkpt>
      <trkpt lat="43.52632" lon="2.32937">
        <ele>279.62636211121</ele>
        <time>2021-04-13T07:44:19Z</time>
      </trkpt>
      <trkpt lat="43.52634" lon="2.32948">
        <ele>277.98820647701</ele>
        <time>2021-04-13T07:44:27Z</time>
      </trkpt>
      <trkpt lat="43.52635" lon="2.32959">
        <ele>277.65952585203</ele>
        <time>2021-04-13T07:44:39Z</time>
      </trkpt>
      <trkpt lat="43.52636" lon="2.3297">
        <ele>278.94038931433</ele>
        <time>2021-04-13T07:44:47Z</time>
      </trkpt>
      <trkpt lat="43.52639" lon="2.32981">
        <ele>279.1987206943</ele>
        <time>2021-04-13T07:45:12Z</time>
      </trkpt>
      <trkpt lat="43.52642" lon="2.32992">
        <ele>279.85779277147</ele>
        <time>2021-04-13T07:45:21Z</time>
      </trkpt>
      <trkpt lat="43.52644" lon="2.33002">
        <ele>281.45229836235</ele>
        <time>2021-04-13T07:45:27Z</time>
      </trkpt>
      <trkpt lat="43.52645" lon="2.33013">
        <ele>283.10118770482</ele>
        <time>2021-04-13T07:45:33Z</time>
      </trkpt>
      <trkpt lat="43.52646" lon="2.33025">
        <ele>285.37246644272</ele>
        <time>2021-04-13T07:45:41Z</time>
      </trkpt>
      <trkpt lat="43.52647" lon="2.33037">
        <ele>287.40670744502</ele>
        <time>2021-04-13T07:45:50Z</time>
      </trkpt>
      <trkpt lat="43.52649" lon="2.33048">
        <ele>289.37083842395</ele>
        <time>2021-04-13T07:45:58Z</time>
      </trkpt>
      <trkpt lat="43.5265" lon="2.33059">
        <ele>288.36612796794</ele>
        <time>2021-04-13T07:46:05Z</time>
      </trkpt>
      <trkpt lat="43.52652" lon="2.3307">
        <ele>287.26433075097</ele>
        <time>2021-04-13T07:46:12Z</time>
      </trkpt>
      <trkpt lat="43.52653" lon="2.33082">
        <ele>285.57986522065</ele>
        <time>2021-04-13T07:46:19Z</time>
      </trkpt>
      <trkpt lat="43.52654" lon="2.33094">
        <ele>284.44235752489</ele>
        <time>2021-04-13T07:46:25Z</time>
      </trkpt>
      <trkpt lat="43.52655" lon="2.33106">
        <ele>283.59995143918</ele>
        <time>2021-04-13T07:46:34Z</time>
      </trkpt>
      <trkpt lat="43.52655" lon="2.33117">
        <ele>282.28288783549</ele>
        <time>2021-04-13T07:46:41Z</time>
      </trkpt>
      <trkpt lat="43.52655" lon="2.33129">
        <ele>281.8321813356</ele>
        <time>2021-04-13T07:46:48Z</time>
      </trkpt>
      <trkpt lat="43.52657" lon="2.3314">
        <ele>281.89684639882</ele>
        <time>2021-04-13T07:46:54Z</time>
      </trkpt>
      <trkpt lat="43.5266" lon="2.33151">
        <ele>282.37892801631</ele>
        <time>2021-04-13T07:47:02Z</time>
      </trkpt>
      <trkpt lat="43.52662" lon="2.33162">
        <ele>283.16230012011</ele>
        <time>2021-04-13T07:47:09Z</time>
      </trkpt>
      <trkpt lat="43.52664" lon="2.33173">
        <ele>284.7206645952</ele>
        <time>2021-04-13T07:47:16Z</time>
      </trkpt>
      <trkpt lat="43.52667" lon="2.33185">
        <ele>285.06626952442</ele>
        <time>2021-04-13T07:47:24Z</time>
      </trkpt>
      <trkpt lat="43.52668" lon="2.33197">
        <ele>283.58110668337</ele>
        <time>2021-04-13T07:49:58Z</time>
      </trkpt>
      <trkpt lat="43.52667" lon="2.33208">
        <ele>281.66129209189</ele>
        <time>2021-04-13T07:50:04Z</time>
      </trkpt>
      <trkpt lat="43.52667" lon="2.33219">
        <ele>280.12148631245</ele>
        <time>2021-04-13T07:50:10Z</time>
      </trkpt>
      <trkpt lat="43.52668" lon="2.3323">
        <ele>278.32065231431</ele>
        <time>2021-04-13T07:50:16Z</time>
      </trkpt>
      <trkpt lat="43.5267" lon="2.33242">
        <ele>277.32916619858</ele>
        <time>2021-04-13T07:50:24Z</time>
      </trkpt>
      <trkpt lat="43.52673" lon="2.33253">
        <ele>276.85372431579</ele>
        <time>2021-04-13T07:50:33Z</time>
      </trkpt>
      <trkpt lat="43.52673" lon="2.33264">
        <ele>277.2867536021</ele>
        <time>2021-04-13T07:50:38Z</time>
      </trkpt>
      <trkpt lat="43.52673" lon="2.33276">
        <ele>277.31616723837</ele>
        <time>2021-04-13T07:50:47Z</time>
      </trkpt>
      <trkpt lat="43.52673" lon="2.33286">
        <ele>277.63103113912</ele>
        <time>2021-04-13T07:51:06Z</time>
      </trkpt>
      <trkpt lat="43.5267" lon="2.33298">
        <ele>281.4692352522</ele>
        <time>2021-04-13T07:51:31Z</time>
      </trkpt>
      <trkpt lat="43.52666" lon="2.33308">
        <ele>281.23268553832</ele>
        <time>2021-04-13T07:51:50Z</time>
      </trkpt>
      <trkpt lat="43.5266" lon="2.33317">
        <ele>282.07729608639</ele>
        <time>2021-04-13T07:51:58Z</time>
      </trkpt>
      <trkpt lat="43.52657" lon="2.33328">
        <ele>281.93213021784</ele>
        <time>2021-04-13T07:52:05Z</time>
      </trkpt>
      <trkpt lat="43.52654" lon="2.33339">
        <ele>283.18047938632</ele>
        <time>2021-04-13T07:52:19Z</time>
      </trkpt>
      <trkpt lat="43.52654" lon="2.33351">
        <ele>283.86242974696</ele>
        <time>2021-04-13T07:52:27Z</time>
      </trkpt>
      <trkpt lat="43.52655" lon="2.33363">
        <ele>283.36552238711</ele>
        <time>2021-04-13T07:52:36Z</time>
      </trkpt>
      <trkpt lat="43.52659" lon="2.33373">
        <ele>282.08030048726</ele>
        <time>2021-04-13T07:52:47Z</time>
      </trkpt>
      <trkpt lat="43.52665" lon="2.3338">
        <ele>283.26501149713</ele>
        <time>2021-04-13T07:53:06Z</time>
      </trkpt>
      <trkpt lat="43.52672" lon="2.33385">
        <ele>286.61323417235</ele>
        <time>2021-04-13T07:53:12Z</time>
      </trkpt>
      <trkpt lat="43.52679" lon="2.33391">
        <ele>285.71908091317</ele>
        <time>2021-04-13T07:53:18Z</time>
      </trkpt>
      <trkpt lat="43.52686" lon="2.33396">
        <ele>288.83795659336</ele>
        <time>2021-04-13T07:53:24Z</time>
      </trkpt>
      <trkpt lat="43.52692" lon="2.33405">
        <ele>291.92841883122</ele>
        <time>2021-04-13T07:53:33Z</time>
      </trkpt>
      <trkpt lat="43.527" lon="2.33407">
        <ele>293.42249211713</ele>
        <time>2021-04-13T07:53:52Z</time>
      </trkpt>
      <trkpt lat="43.52707" lon="2.33401">
        <ele>294.03312853319</ele>
        <time>2021-04-13T07:54:01Z</time>
      </trkpt>
      <trkpt lat="43.52712" lon="2.33391">
        <ele>290.52968894473</ele>
        <time>2021-04-13T07:55:01Z</time>
      </trkpt>
      <trkpt lat="43.52708" lon="2.3338">
        <ele>290.51445152954</ele>
        <time>2021-04-13T07:55:09Z</time>
      </trkpt>
      <trkpt lat="43.52704" lon="2.33371">
        <ele>289.2877243436</ele>
        <time>2021-04-13T07:55:16Z</time>
      </trkpt>
      <trkpt lat="43.52697" lon="2.33363">
        <ele>290.19451127879</ele>
        <time>2021-04-13T07:55:26Z</time>
      </trkpt>
      <trkpt lat="43.52691" lon="2.33356">
        <ele>290.87491354132</ele>
        <time>2021-04-13T07:55:33Z</time>
      </trkpt>
      <trkpt lat="43.52685" lon="2.3335">
        <ele>290.94829219571</ele>
        <time>2021-04-13T07:55:39Z</time>
      </trkpt>
      <trkpt lat="43.52677" lon="2.33344">
        <ele>290.96929399975</ele>
        <time>2021-04-13T07:55:45Z</time>
      </trkpt>
      <trkpt lat="43.52673" lon="2.33335">
        <ele>289.07794930984</ele>
        <time>2021-04-13T07:55:51Z</time>
      </trkpt>
      <trkpt lat="43.5267" lon="2.33325">
        <ele>288.95757262087</ele>
        <time>2021-04-13T07:55:57Z</time>
      </trkpt>
      <trkpt lat="43.52667" lon="2.33314">
        <ele>289.92939985193</ele>
        <time>2021-04-13T07:56:04Z</time>
      </trkpt>
      <trkpt lat="43.52658" lon="2.33314">
        <ele>290.51324340369</ele>
        <time>2021-04-13T07:56:10Z</time>
      </trkpt>
      <trkpt lat="43.52664" lon="2.33305">
        <ele>285.96856684143</ele>
        <time>2021-04-13T07:57:24Z</time>
      </trkpt>
      <trkpt lat="43.52668" lon="2.33295">
        <ele>284.7304494563</ele>
        <time>2021-04-13T07:57:31Z</time>
      </trkpt>
      <trkpt lat="43.52671" lon="2.33286">
        <ele>285.25719255826</ele>
        <time>2021-04-13T07:57:38Z</time>
      </trkpt>
      <trkpt lat="43.52672" lon="2.33274">
        <ele>285.37136935166</ele>
        <time>2021-04-13T07:57:44Z</time>
      </trkpt>
      <trkpt lat="43.52667" lon="2.33264">
        <ele>286.29087280229</ele>
        <time>2021-04-13T07:57:53Z</time>
      </trkpt>
      <trkpt lat="43.52659" lon="2.33264">
        <ele>285.72822496732</ele>
        <time>2021-04-13T07:58:00Z</time>
      </trkpt>
      <trkpt lat="43.52654" lon="2.33274">
        <ele>285.1904696893</ele>
        <time>2021-04-13T07:58:07Z</time>
      </trkpt>
      <trkpt lat="43.52651" lon="2.33283">
        <ele>283.65050778848</ele>
        <time>2021-04-13T07:58:14Z</time>
      </trkpt>
      <trkpt lat="43.52648" lon="2.33294">
        <ele>282.06336277831</ele>
        <time>2021-04-13T07:58:21Z</time>
      </trkpt>
      <trkpt lat="43.52647" lon="2.33305">
        <ele>282.39724188894</ele>
        <time>2021-04-13T07:58:28Z</time>
      </trkpt>
      <trkpt lat="43.52646" lon="2.33318">
        <ele>282.82720549218</ele>
        <time>2021-04-13T07:58:36Z</time>
      </trkpt>
      <trkpt lat="43.52645" lon="2.33329">
        <ele>283.96324370991</ele>
        <time>2021-04-13T07:58:44Z</time>
      </trkpt>
      <trkpt lat="43.52643" lon="2.3334">
        <ele>284.78050028132</ele>
        <time>2021-04-13T07:58:51Z</time>
      </trkpt>
      <trkpt lat="43.52641" lon="2.33352">
        <ele>286.8135506606</ele>
        <time>2021-04-13T07:58:59Z</time>
      </trkpt>
      <trkpt lat="43.52638" lon="2.33362">
        <ele>287.15414020062</ele>
        <time>2021-04-13T07:59:06Z</time>
      </trkpt>
      <trkpt lat="43.52637" lon="2.33374">
        <ele>285.81895800962</ele>
        <time>2021-04-13T07:59:14Z</time>
      </trkpt>
      <trkpt lat="43.52638" lon="2.33386">
        <ele>285.06084728804</ele>
        <time>2021-04-13T07:59:21Z</time>
      </trkpt>
      <trkpt lat="43.5264" lon="2.33396">
        <ele>285.81263031011</ele>
        <time>2021-04-13T07:59:27Z</time>
      </trkpt>
      <trkpt lat="43.52645" lon="2.33406">
        <ele>287.63038667828</ele>
        <time>2021-04-13T07:59:33Z</time>
      </trkpt>
      <trkpt lat="43.52652" lon="2.33411">
        <ele>287.94435143125</ele>
        <time>2021-04-13T07:59:41Z</time>
      </trkpt>
      <trkpt lat="43.52659" lon="2.33418">
        <ele>287.58620174641</ele>
        <time>2021-04-13T07:59:50Z</time>
      </trkpt>
      <trkpt lat="43.52665" lon="2.33426">
        <ele>287.23330987185</ele>
        <time>2021-04-13T07:59:58Z</time>
      </trkpt>
      <trkpt lat="43.5267" lon="2.33436">
        <ele>287.71875901297</ele>
        <time>2021-04-13T08:00:06Z</time>
      </trkpt>
      <trkpt lat="43.52674" lon="2.33445">
        <ele>288.41547224222</ele>
        <time>2021-04-13T08:00:11Z</time>
      </trkpt>
      <trkpt lat="43.52678" lon="2.33454">
        <ele>288.08552001488</ele>
        <time>2021-04-13T08:00:19Z</time>
      </trkpt>
      <trkpt lat="43.52683" lon="2.33464">
        <ele>287.28935188538</ele>
        <time>2021-04-13T08:00:26Z</time>
      </trkpt>
      <trkpt lat="43.52686" lon="2.33474">
        <ele>286.4172425962</ele>
        <time>2021-04-13T08:00:33Z</time>
      </trkpt>
      <trkpt lat="43.52687" lon="2.33486">
        <ele>285.12567333436</ele>
        <time>2021-04-13T08:00:41Z</time>
      </trkpt>
      <trkpt lat="43.52686" lon="2.33498">
        <ele>282.43659866593</ele>
        <time>2021-04-13T08:00:49Z</time>
      </trkpt>
      <trkpt lat="43.52679" lon="2.33506">
        <ele>279.29795639627</ele>
        <time>2021-04-13T08:01:00Z</time>
      </trkpt>
      <trkpt lat="43.52672" lon="2.33512">
        <ele>277.67755178946</ele>
        <time>2021-04-13T08:01:08Z</time>
      </trkpt>
      <trkpt lat="43.52663" lon="2.33517">
        <ele>276.69204224748</ele>
        <time>2021-04-13T08:01:12Z</time>
      </trkpt>
      <trkpt lat="43.52654" lon="2.3352">
        <ele>271.85761519343</ele>
        <time>2021-04-13T08:01:23Z</time>
      </trkpt>
      <trkpt lat="43.52646" lon="2.33519">
        <ele>269.0696594441</ele>
        <time>2021-04-13T08:01:30Z</time>
      </trkpt>
      <trkpt lat="43.52639" lon="2.33514">
        <ele>266.72011293537</ele>
        <time>2021-04-13T08:01:36Z</time>
      </trkpt>
      <trkpt lat="43.52631" lon="2.33511">
        <ele>263.17055156447</ele>
        <time>2021-04-13T08:01:43Z</time>
      </trkpt>
      <trkpt lat="43.52623" lon="2.33507">
        <ele>263.22003658236</ele>
        <time>2021-04-13T08:01:50Z</time>
      </trkpt>
      <trkpt lat="43.52614" lon="2.33509">
        <ele>264.43794804431</ele>
        <time>2021-04-13T08:01:58Z</time>
      </trkpt>
      <trkpt lat="43.52606" lon="2.33513">
        <ele>264.83523044663</ele>
        <time>2021-04-13T08:02:03Z</time>
      </trkpt>
      <trkpt lat="43.526" lon="2.3352">
        <ele>264.21236627628</ele>
        <time>2021-04-13T08:02:15Z</time>
      </trkpt>
      <trkpt lat="43.52595" lon="2.33529">
        <ele>264.9271346327</ele>
        <time>2021-04-13T08:02:24Z</time>
      </trkpt>
      <trkpt lat="43.52589" lon="2.33538">
        <ele>264.48713102709</ele>
        <time>2021-04-13T08:02:31Z</time>
      </trkpt>
      <trkpt lat="43.52583" lon="2.33547">
        <ele>265.65400385578</ele>
        <time>2021-04-13T08:02:38Z</time>
      </trkpt>
      <trkpt lat="43.52579" lon="2.33557">
        <ele>265.90329913062</ele>
        <time>2021-04-13T08:02:44Z</time>
      </trkpt>
      <trkpt lat="43.52575" lon="2.33567">
        <ele>268.74994532918</ele>
        <time>2021-04-13T08:02:53Z</time>
      </trkpt>
      <trkpt lat="43.52572" lon="2.33578">
        <ele>270.16623849504</ele>
        <time>2021-04-13T08:03:01Z</time>
      </trkpt>
      <trkpt lat="43.52569" lon="2.3359">
        <ele>271.97529795795</ele>
        <time>2021-04-13T08:03:08Z</time>
      </trkpt>
      <trkpt lat="43.52566" lon="2.336">
        <ele>272.00531446847</ele>
        <time>2021-04-13T08:03:15Z</time>
      </trkpt>
      <trkpt lat="43.52563" lon="2.33612">
        <ele>270.61903630696</ele>
        <time>2021-04-13T08:03:23Z</time>
      </trkpt>
      <trkpt lat="43.52561" lon="2.33623">
        <ele>270.27727170973</ele>
        <time>2021-04-13T08:03:31Z</time>
      </trkpt>
      <trkpt lat="43.52558" lon="2.33634">
        <ele>269.8952990702</ele>
        <time>2021-04-13T08:03:38Z</time>
      </trkpt>
      <trkpt lat="43.52555" lon="2.33645">
        <ele>268.69218902604</ele>
        <time>2021-04-13T08:03:44Z</time>
      </trkpt>
      <trkpt lat="43.5255" lon="2.33656">
        <ele>268.72134927081</ele>
        <time>2021-04-13T08:03:52Z</time>
      </trkpt>
      <trkpt lat="43.52548" lon="2.33668">
        <ele>267.58507917891</ele>
        <time>2021-04-13T08:03:59Z</time>
      </trkpt>
      <trkpt lat="43.5255" lon="2.33678">
        <ele>268.83880279518</ele>
        <time>2021-04-13T08:04:09Z</time>
      </trkpt>
      <trkpt lat="43.52549" lon="2.3369">
        <ele>268.99695896306</ele>
        <time>2021-04-13T08:04:16Z</time>
      </trkpt>
      <trkpt lat="43.52547" lon="2.337">
        <ele>268.67682327046</ele>
        <time>2021-04-13T08:04:23Z</time>
      </trkpt>
      <trkpt lat="43.52545" lon="2.33712">
        <ele>268.36027820611</ele>
        <time>2021-04-13T08:04:30Z</time>
      </trkpt>
      <trkpt lat="43.52544" lon="2.33723">
        <ele>269.91701491822</ele>
        <time>2021-04-13T08:04:38Z</time>
      </trkpt>
      <trkpt lat="43.52543" lon="2.33735">
        <ele>270.9118693974</ele>
        <time>2021-04-13T08:04:46Z</time>
      </trkpt>
      <trkpt lat="43.52538" lon="2.33744">
        <ele>270.81021891914</ele>
        <time>2021-04-13T08:04:54Z</time>
      </trkpt>
      <trkpt lat="43.52532" lon="2.3375">
        <ele>271.25917954692</ele>
        <time>2021-04-13T08:05:01Z</time>
      </trkpt>
      <trkpt lat="43.52525" lon="2.33757">
        <ele>271.18993559675</ele>
        <time>2021-04-13T08:05:08Z</time>
      </trkpt>
      <trkpt lat="43.52518" lon="2.33763">
        <ele>270.10492671157</ele>
        <time>2021-04-13T08:05:14Z</time>
      </trkpt>
      <trkpt lat="43.5251" lon="2.33768">
        <ele>268.75349305488</ele>
        <time>2021-04-13T08:05:21Z</time>
      </trkpt>
      <trkpt lat="43.52502" lon="2.33767">
        <ele>271.83024958032</ele>
        <time>2021-04-13T08:05:31Z</time>
      </trkpt>
      <trkpt lat="43.52494" lon="2.33771">
        <ele>274.14237361215</ele>
        <time>2021-04-13T08:05:41Z</time>
      </trkpt>
      <trkpt lat="43.52487" lon="2.3378">
        <ele>271.9801543817</ele>
        <time>2021-04-13T08:05:58Z</time>
      </trkpt>
      <trkpt lat="43.52485" lon="2.33792">
        <ele>274.17849387966</ele>
        <time>2021-04-13T08:06:30Z</time>
      </trkpt>
      <trkpt lat="43.52487" lon="2.33804">
        <ele>275.40732788747</ele>
        <time>2021-04-13T08:06:44Z</time>
      </trkpt>
      <trkpt lat="43.52485" lon="2.33816">
        <ele>273.74427433582</ele>
        <time>2021-04-13T08:07:08Z</time>
      </trkpt>
      <trkpt lat="43.52486" lon="2.33827">
        <ele>273.84868276144</ele>
        <time>2021-04-13T08:07:17Z</time>
      </trkpt>
      <trkpt lat="43.52489" lon="2.33838">
        <ele>276.22683854847</ele>
        <time>2021-04-13T08:07:24Z</time>
      </trkpt>
      <trkpt lat="43.52489" lon="2.3385">
        <ele>279.15072101994</ele>
        <time>2021-04-13T08:07:55Z</time>
      </trkpt>
      <trkpt lat="43.52486" lon="2.33861">
        <ele>279.87240474967</ele>
        <time>2021-04-13T08:08:07Z</time>
      </trkpt>
      <trkpt lat="43.52488" lon="2.33872">
        <ele>280.07218735591</ele>
        <time>2021-04-13T08:08:52Z</time>
      </trkpt>
      <trkpt lat="43.52492" lon="2.33882">
        <ele>279.51210348733</ele>
        <time>2021-04-13T08:08:58Z</time>
      </trkpt>
      <trkpt lat="43.52496" lon="2.33891">
        <ele>279.09757856744</ele>
        <time>2021-04-13T08:09:05Z</time>
      </trkpt>
      <trkpt lat="43.52498" lon="2.33902">
        <ele>279.71666655871</ele>
        <time>2021-04-13T08:09:11Z</time>
      </trkpt>
      <trkpt lat="43.52502" lon="2.33911">
        <ele>280.6449996077</ele>
        <time>2021-04-13T08:09:17Z</time>
      </trkpt>
      <trkpt lat="43.52505" lon="2.33922">
        <ele>282.13343368747</ele>
        <time>2021-04-13T08:09:23Z</time>
      </trkpt>
      <trkpt lat="43.52508" lon="2.33933">
        <ele>283.51701055702</ele>
        <time>2021-04-13T08:09:29Z</time>
      </trkpt>
      <trkpt lat="43.52509" lon="2.33945">
        <ele>287.0613352196</ele>
        <time>2021-04-13T08:09:39Z</time>
      </trkpt>
      <trkpt lat="43.52513" lon="2.33955">
        <ele>289.26625720655</ele>
        <time>2021-04-13T08:09:45Z</time>
      </trkpt>
      <trkpt lat="43.52518" lon="2.33965">
        <ele>289.86363098568</ele>
        <time>2021-04-13T08:09:54Z</time>
      </trkpt>
      <trkpt lat="43.5252" lon="2.33974">
        <ele>291.41449664108</ele>
        <time>2021-04-13T08:10:03Z</time>
      </trkpt>
      <trkpt lat="43.52523" lon="2.33986">
        <ele>291.5761500843</ele>
        <time>2021-04-13T08:10:22Z</time>
      </trkpt>
      <trkpt lat="43.52527" lon="2.33996">
        <ele>291.71367977176</ele>
        <time>2021-04-13T08:10:29Z</time>
      </trkpt>
      <trkpt lat="43.52529" lon="2.34007">
        <ele>292.42963678769</ele>
        <time>2021-04-13T08:10:37Z</time>
      </trkpt>
      <trkpt lat="43.5253" lon="2.34019">
        <ele>293.33402964355</ele>
        <time>2021-04-13T08:10:43Z</time>
      </trkpt>
      <trkpt lat="43.52532" lon="2.3403">
        <ele>291.60417147404</ele>
        <time>2021-04-13T08:10:53Z</time>
      </trkpt>
      <trkpt lat="43.52535" lon="2.34042">
        <ele>292.09988384728</ele>
        <time>2021-04-13T08:11:08Z</time>
      </trkpt>
      <trkpt lat="43.52534" lon="2.34053">
        <ele>292.92635612939</ele>
        <time>2021-04-13T08:11:16Z</time>
      </trkpt>
      <trkpt lat="43.5253" lon="2.34064">
        <ele>293.91667142174</ele>
        <time>2021-04-13T08:11:23Z</time>
      </trkpt>
      <trkpt lat="43.52527" lon="2.34075">
        <ele>295.27207262195</ele>
        <time>2021-04-13T08:11:32Z</time>
      </trkpt>
      <trkpt lat="43.52525" lon="2.34087">
        <ele>295.91143108312</ele>
        <time>2021-04-13T08:11:43Z</time>
      </trkpt>
      <trkpt lat="43.52525" lon="2.34098">
        <ele>298.03811275743</ele>
        <time>2021-04-13T08:11:51Z</time>
      </trkpt>
      <trkpt lat="43.52524" lon="2.34109">
        <ele>299.38853104343</ele>
        <time>2021-04-13T08:12:06Z</time>
      </trkpt>
      <trkpt lat="43.52523" lon="2.34121">
        <ele>302.27949670838</ele>
        <time>2021-04-13T08:12:14Z</time>
      </trkpt>
      <trkpt lat="43.52523" lon="2.34132">
        <ele>304.53423013144</ele>
        <time>2021-04-13T08:12:22Z</time>
      </trkpt>
      <trkpt lat="43.52523" lon="2.34144">
        <ele>307.52426252833</ele>
        <time>2021-04-13T08:12:30Z</time>
      </trkpt>
      <trkpt lat="43.52525" lon="2.34155">
        <ele>310.14388686886</ele>
        <time>2021-04-13T08:12:40Z</time>
      </trkpt>
      <trkpt lat="43.52533" lon="2.34154">
        <ele>308.09050136569</ele>
        <time>2021-04-13T08:13:07Z</time>
      </trkpt>
      <trkpt lat="43.5254" lon="2.3415">
        <ele>307.23115156985</ele>
        <time>2021-04-13T08:13:16Z</time>
      </trkpt>
      <trkpt lat="43.52548" lon="2.34145">
        <ele>308.43393276891</ele>
        <time>2021-04-13T08:13:25Z</time>
      </trkpt>
      <trkpt lat="43.52556" lon="2.34142">
        <ele>310.31126638457</ele>
        <time>2021-04-13T08:13:32Z</time>
      </trkpt>
      <trkpt lat="43.52564" lon="2.3414">
        <ele>311.48272923485</ele>
        <time>2021-04-13T08:13:37Z</time>
      </trkpt>
      <trkpt lat="43.52572" lon="2.3414">
        <ele>312.12227802059</ele>
        <time>2021-04-13T08:13:43Z</time>
      </trkpt>
      <trkpt lat="43.52581" lon="2.34143">
        <ele>312.60498835652</ele>
        <time>2021-04-13T08:13:50Z</time>
      </trkpt>
      <trkpt lat="43.52589" lon="2.34147">
        <ele>314.17936695788</ele>
        <time>2021-04-13T08:13:58Z</time>
      </trkpt>
      <trkpt lat="43.52597" lon="2.34149">
        <ele>314.96373505929</ele>
        <time>2021-04-13T08:14:08Z</time>
      </trkpt>
      <trkpt lat="43.52606" lon="2.34153">
        <ele>315.09919389547</ele>
        <time>2021-04-13T08:14:18Z</time>
      </trkpt>
      <trkpt lat="43.52614" lon="2.34156">
        <ele>317.03899618155</ele>
        <time>2021-04-13T08:14:25Z</time>
      </trkpt>
      <trkpt lat="43.52621" lon="2.34162">
        <ele>319.49195377994</ele>
        <time>2021-04-13T08:14:31Z</time>
      </trkpt>
      <trkpt lat="43.52622" lon="2.34174">
        <ele>323.63007671577</ele>
        <time>2021-04-13T08:15:47Z</time>
      </trkpt>
      <trkpt lat="43.52614" lon="2.34179">
        <ele>321.42599263984</ele>
        <time>2021-04-13T08:15:54Z</time>
      </trkpt>
      <trkpt lat="43.52608" lon="2.34185">
        <ele>319.70352792149</ele>
        <time>2021-04-13T08:16:00Z</time>
      </trkpt>
      <trkpt lat="43.526" lon="2.3419">
        <ele>318.4368219072</ele>
        <time>2021-04-13T08:16:06Z</time>
      </trkpt>
      <trkpt lat="43.52593" lon="2.34196">
        <ele>318.75789487651</ele>
        <time>2021-04-13T08:16:18Z</time>
      </trkpt>
      <trkpt lat="43.52586" lon="2.34201">
        <ele>320.41456097045</ele>
        <time>2021-04-13T08:16:24Z</time>
      </trkpt>
      <trkpt lat="43.52579" lon="2.34207">
        <ele>320.29123502297</ele>
        <time>2021-04-13T08:16:32Z</time>
      </trkpt>
      <trkpt lat="43.52572" lon="2.34212">
        <ele>319.78626574474</ele>
        <time>2021-04-13T08:16:41Z</time>
      </trkpt>
      <trkpt lat="43.52577" lon="2.34203">
        <ele>314.6545546706</ele>
        <time>2021-04-13T08:34:25Z</time>
      </trkpt>
      <trkpt lat="43.52585" lon="2.342">
        <ele>315.07665746941</ele>
        <time>2021-04-13T08:35:02Z</time>
      </trkpt>
      <trkpt lat="43.52594" lon="2.34198">
        <ele>314.79377134927</ele>
        <time>2021-04-13T08:35:10Z</time>
      </trkpt>
      <trkpt lat="43.52602" lon="2.34196">
        <ele>315.52335680234</ele>
        <time>2021-04-13T08:35:20Z</time>
      </trkpt>
      <trkpt lat="43.52608" lon="2.34188">
        <ele>313.95913075188</ele>
        <time>2021-04-13T08:35:32Z</time>
      </trkpt>
      <trkpt lat="43.52612" lon="2.34178">
        <ele>313.6259119941</ele>
        <time>2021-04-13T08:35:51Z</time>
      </trkpt>
      <trkpt lat="43.52619" lon="2.34173">
        <ele>314.46683861814</ele>
        <time>2021-04-13T08:35:56Z</time>
      </trkpt>
      <trkpt lat="43.52626" lon="2.34169">
        <ele>315.84234623531</ele>
        <time>2021-04-13T08:36:01Z</time>
      </trkpt>
      <trkpt lat="43.52634" lon="2.34165">
        <ele>316.89587741689</ele>
        <time>2021-04-13T08:36:08Z</time>
      </trkpt>
      <trkpt lat="43.52643" lon="2.34166">
        <ele>317.80310938688</ele>
        <time>2021-04-13T08:36:14Z</time>
      </trkpt>
      <trkpt lat="43.52651" lon="2.34162">
        <ele>319.1610157391</ele>
        <time>2021-04-13T08:36:19Z</time>
      </trkpt>
      <trkpt lat="43.52659" lon="2.34156">
        <ele>321.15652808455</ele>
        <time>2021-04-13T08:36:27Z</time>
      </trkpt>
      <trkpt lat="43.52667" lon="2.34157">
        <ele>320.86322561094</ele>
        <time>2021-04-13T08:36:34Z</time>
      </trkpt>
      <trkpt lat="43.52675" lon="2.34157">
        <ele>323.09441603248</ele>
        <time>2021-04-13T08:36:40Z</time>
      </trkpt>
      <trkpt lat="43.52683" lon="2.34158">
        <ele>315.51537684121</ele>
        <time>2021-04-13T08:36:54Z</time>
      </trkpt>
      <trkpt lat="43.52692" lon="2.34157">
        <ele>315.1277588396</ele>
        <time>2021-04-13T08:37:04Z</time>
      </trkpt>
      <trkpt lat="43.52699" lon="2.34151">
        <ele>315.13328023795</ele>
        <time>2021-04-13T08:37:14Z</time>
      </trkpt>
      <trkpt lat="43.52705" lon="2.34142">
        <ele>315.7910971447</ele>
        <time>2021-04-13T08:37:23Z</time>
      </trkpt>
      <trkpt lat="43.52711" lon="2.34134">
        <ele>316.03206405643</ele>
        <time>2021-04-13T08:37:29Z</time>
      </trkpt>
      <trkpt lat="43.52717" lon="2.34125">
        <ele>315.50736781228</ele>
        <time>2021-04-13T08:37:35Z</time>
      </trkpt>
      <trkpt lat="43.52721" lon="2.34115">
        <ele>315.3800073648</ele>
        <time>2021-04-13T08:40:01Z</time>
      </trkpt>
      <trkpt lat="43.52725" lon="2.34105">
        <ele>315.55699125181</ele>
        <time>2021-04-13T08:40:07Z</time>
      </trkpt>
      <trkpt lat="43.5273" lon="2.34097">
        <ele>314.84416437005</ele>
        <time>2021-04-13T08:40:13Z</time>
      </trkpt>
      <trkpt lat="43.52735" lon="2.34088">
        <ele>313.8253394273</ele>
        <time>2021-04-13T08:40:18Z</time>
      </trkpt>
      <trkpt lat="43.5274" lon="2.34078">
        <ele>313.51736776587</ele>
        <time>2021-04-13T08:40:24Z</time>
      </trkpt>
      <trkpt lat="43.52742" lon="2.34066">
        <ele>315.05480775192</ele>
        <time>2021-04-13T08:40:32Z</time>
      </trkpt>
      <trkpt lat="43.52744" lon="2.34054">
        <ele>315.01507615261</ele>
        <time>2021-04-13T08:40:41Z</time>
      </trkpt>
      <trkpt lat="43.52746" lon="2.34043">
        <ele>313.62082210474</ele>
        <time>2021-04-13T08:40:48Z</time>
      </trkpt>
      <trkpt lat="43.52745" lon="2.34032">
        <ele>313.41294896075</ele>
        <time>2021-04-13T08:41:14Z</time>
      </trkpt>
      <trkpt lat="43.52746" lon="2.3402">
        <ele>313.7515935798</ele>
        <time>2021-04-13T08:41:20Z</time>
      </trkpt>
      <trkpt lat="43.52747" lon="2.34009">
        <ele>314.93769641066</ele>
        <time>2021-04-13T08:41:30Z</time>
      </trkpt>
      <trkpt lat="43.52751" lon="2.34">
        <ele>315.21171198435</ele>
        <time>2021-04-13T08:41:36Z</time>
      </trkpt>
      <trkpt lat="43.52754" lon="2.3399">
        <ele>315.72395935691</ele>
        <time>2021-04-13T08:41:40Z</time>
      </trkpt>
      <trkpt lat="43.52758" lon="2.33979">
        <ele>313.26277167246</ele>
        <time>2021-04-13T08:41:48Z</time>
      </trkpt>
      <trkpt lat="43.52761" lon="2.33969">
        <ele>313.8353413232</ele>
        <time>2021-04-13T08:41:54Z</time>
      </trkpt>
      <trkpt lat="43.52765" lon="2.33959">
        <ele>314.57440934687</ele>
        <time>2021-04-13T08:41:59Z</time>
      </trkpt>
      <trkpt lat="43.52769" lon="2.33948">
        <ele>314.45202944363</ele>
        <time>2021-04-13T08:42:05Z</time>
      </trkpt>
      <trkpt lat="43.52772" lon="2.33938">
        <ele>313.5449385908</ele>
        <time>2021-04-13T08:42:11Z</time>
      </trkpt>
      <trkpt lat="43.52775" lon="2.33927">
        <ele>313.04214605623</ele>
        <time>2021-04-13T08:42:19Z</time>
      </trkpt>
      <trkpt lat="43.52779" lon="2.33916">
        <ele>313.44539990835</ele>
        <time>2021-04-13T08:42:25Z</time>
      </trkpt>
      <trkpt lat="43.52783" lon="2.33905">
        <ele>312.81948938564</ele>
        <time>2021-04-13T08:42:32Z</time>
      </trkpt>
      <trkpt lat="43.52787" lon="2.33894">
        <ele>311.44767990733</ele>
        <time>2021-04-13T08:42:39Z</time>
      </trkpt>
      <trkpt lat="43.52792" lon="2.33885">
        <ele>310.14953304846</ele>
        <time>2021-04-13T08:42:47Z</time>
      </trkpt>
      <trkpt lat="43.52798" lon="2.33877">
        <ele>310.4869036341</ele>
        <time>2021-04-13T08:42:54Z</time>
      </trkpt>
      <trkpt lat="43.52803" lon="2.3387">
        <ele>311.14506291315</ele>
        <time>2021-04-13T08:42:59Z</time>
      </trkpt>
      <trkpt lat="43.52809" lon="2.33861">
        <ele>311.1245760583</ele>
        <time>2021-04-13T08:43:06Z</time>
      </trkpt>
      <trkpt lat="43.52814" lon="2.33852">
        <ele>309.9443582246</ele>
        <time>2021-04-13T08:43:12Z</time>
      </trkpt>
      <trkpt lat="43.52819" lon="2.33842">
        <ele>309.9684889495</ele>
        <time>2021-04-13T08:43:21Z</time>
      </trkpt>
      <trkpt lat="43.52822" lon="2.33832">
        <ele>310.9323716549</ele>
        <time>2021-04-13T08:43:27Z</time>
      </trkpt>
      <trkpt lat="43.52827" lon="2.33821">
        <ele>312.0812882857</ele>
        <time>2021-04-13T08:43:35Z</time>
      </trkpt>
      <trkpt lat="43.5283" lon="2.33811">
        <ele>312.446034017</ele>
        <time>2021-04-13T08:43:43Z</time>
      </trkpt>
      <trkpt lat="43.52833" lon="2.338">
        <ele>313.04182308233</ele>
        <time>2021-04-13T08:43:49Z</time>
      </trkpt>
      <trkpt lat="43.52835" lon="2.33787">
        <ele>313.72065921092</ele>
        <time>2021-04-13T08:43:54Z</time>
      </trkpt>
      <trkpt lat="43.52837" lon="2.33776">
        <ele>313.88229878261</ele>
        <time>2021-04-13T08:44:00Z</time>
      </trkpt>
      <trkpt lat="43.52835" lon="2.33764">
        <ele>313.90832278926</ele>
        <time>2021-04-13T08:44:06Z</time>
      </trkpt>
      <trkpt lat="43.5283" lon="2.33756">
        <ele>315.07156896343</ele>
        <time>2021-04-13T08:44:14Z</time>
      </trkpt>
      <trkpt lat="43.52824" lon="2.33749">
        <ele>314.59061467176</ele>
        <time>2021-04-13T08:44:20Z</time>
      </trkpt>
      <trkpt lat="43.52819" lon="2.3374">
        <ele>313.71026208395</ele>
        <time>2021-04-13T08:44:25Z</time>
      </trkpt>
      <trkpt lat="43.52817" lon="2.33728">
        <ele>312.63089262694</ele>
        <time>2021-04-13T08:44:32Z</time>
      </trkpt>
      <trkpt lat="43.52817" lon="2.33718">
        <ele>312.09935771819</ele>
        <time>2021-04-13T08:44:38Z</time>
      </trkpt>
      <trkpt lat="43.52816" lon="2.33707">
        <ele>312.2576328056</ele>
        <time>2021-04-13T08:44:44Z</time>
      </trkpt>
      <trkpt lat="43.52812" lon="2.33695">
        <ele>310.66686965567</ele>
        <time>2021-04-13T08:44:51Z</time>
      </trkpt>
      <trkpt lat="43.5281" lon="2.33684">
        <ele>308.42846073158</ele>
        <time>2021-04-13T08:45:00Z</time>
      </trkpt>
      <trkpt lat="43.52806" lon="2.33674">
        <ele>307.19706203479</ele>
        <time>2021-04-13T08:45:09Z</time>
      </trkpt>
      <trkpt lat="43.52802" lon="2.33663">
        <ele>305.84622095224</ele>
        <time>2021-04-13T08:45:18Z</time>
      </trkpt>
      <trkpt lat="43.52798" lon="2.33653">
        <ele>306.13809705588</ele>
        <time>2021-04-13T08:45:33Z</time>
      </trkpt>
      <trkpt lat="43.52798" lon="2.33641">
        <ele>304.90637255325</ele>
        <time>2021-04-13T08:45:38Z</time>
      </trkpt>
      <trkpt lat="43.52797" lon="2.3363">
        <ele>303.10596100336</ele>
        <time>2021-04-13T08:45:48Z</time>
      </trkpt>
      <trkpt lat="43.52796" lon="2.3362">
        <ele>303.1065125303</ele>
        <time>2021-04-13T08:45:55Z</time>
      </trkpt>
      <trkpt lat="43.52792" lon="2.33608">
        <ele>303.24645128021</ele>
        <time>2021-04-13T08:46:01Z</time>
      </trkpt>
      <trkpt lat="43.52788" lon="2.33598">
        <ele>302.90555837533</ele>
        <time>2021-04-13T08:46:12Z</time>
      </trkpt>
      <trkpt lat="43.52785" lon="2.33587">
        <ele>302.83005925438</ele>
        <time>2021-04-13T08:46:19Z</time>
      </trkpt>
      <trkpt lat="43.52782" lon="2.33576">
        <ele>302.17245808777</ele>
        <time>2021-04-13T08:46:26Z</time>
      </trkpt>
      <trkpt lat="43.52778" lon="2.33565">
        <ele>299.41726536693</ele>
        <time>2021-04-13T08:46:35Z</time>
      </trkpt>
      <trkpt lat="43.52775" lon="2.33554">
        <ele>296.56883644702</ele>
        <time>2021-04-13T08:46:43Z</time>
      </trkpt>
      <trkpt lat="43.52771" lon="2.33544">
        <ele>295.07326904182</ele>
        <time>2021-04-13T08:46:52Z</time>
      </trkpt>
      <trkpt lat="43.52768" lon="2.33533">
        <ele>295.4663060197</ele>
        <time>2021-04-13T08:47:00Z</time>
      </trkpt>
      <trkpt lat="43.52763" lon="2.33523">
        <ele>294.90855832475</ele>
        <time>2021-04-13T08:47:08Z</time>
      </trkpt>
      <trkpt lat="43.52758" lon="2.33514">
        <ele>293.69950102617</ele>
        <time>2021-04-13T08:47:15Z</time>
      </trkpt>
      <trkpt lat="43.52754" lon="2.33504">
        <ele>291.73570215943</ele>
        <time>2021-04-13T08:47:24Z</time>
      </trkpt>
      <trkpt lat="43.52748" lon="2.33495">
        <ele>290.20978692209</ele>
        <time>2021-04-13T08:47:32Z</time>
      </trkpt>
      <trkpt lat="43.52745" lon="2.33485">
        <ele>290.35287172018</ele>
        <time>2021-04-13T08:47:40Z</time>
      </trkpt>
      <trkpt lat="43.5274" lon="2.33474">
        <ele>291.24330703215</ele>
        <time>2021-04-13T08:47:49Z</time>
      </trkpt>
      <trkpt lat="43.52737" lon="2.33464">
        <ele>290.9456999027</ele>
        <time>2021-04-13T08:47:56Z</time>
      </trkpt>
      <trkpt lat="43.52735" lon="2.33453">
        <ele>291.13465040427</ele>
        <time>2021-04-13T08:48:03Z</time>
      </trkpt>
      <trkpt lat="43.52731" lon="2.33443">
        <ele>291.69844064586</ele>
        <time>2021-04-13T08:48:09Z</time>
      </trkpt>
      <trkpt lat="43.52727" lon="2.33432">
        <ele>291.70609824616</ele>
        <time>2021-04-13T08:48:16Z</time>
      </trkpt>
      <trkpt lat="43.52723" lon="2.33421">
        <ele>291.05552145982</ele>
        <time>2021-04-13T08:48:25Z</time>
      </trkpt>
      <trkpt lat="43.52719" lon="2.33411">
        <ele>290.1628087615</ele>
        <time>2021-04-13T08:48:33Z</time>
      </trkpt>
      <trkpt lat="43.52716" lon="2.334">
        <ele>288.37859108789</ele>
        <time>2021-04-13T08:48:40Z</time>
      </trkpt>
      <trkpt lat="43.52712" lon="2.3339">
        <ele>286.70529478673</ele>
        <time>2021-04-13T08:48:48Z</time>
      </trkpt>
      <trkpt lat="43.52708" lon="2.3338">
        <ele>286.54833920592</ele>
        <time>2021-04-13T08:48:55Z</time>
      </trkpt>
      <trkpt lat="43.52703" lon="2.33371">
        <ele>286.78186481448</ele>
        <time>2021-04-13T08:49:03Z</time>
      </trkpt>
      <trkpt lat="43.52699" lon="2.33361">
        <ele>287.30340490165</ele>
        <time>2021-04-13T08:49:12Z</time>
      </trkpt>
      <trkpt lat="43.52692" lon="2.33353">
        <ele>287.21032645969</ele>
        <time>2021-04-13T08:49:21Z</time>
      </trkpt>
      <trkpt lat="43.52685" lon="2.33349">
        <ele>288.42229424869</ele>
        <time>2021-04-13T08:49:27Z</time>
      </trkpt>
      <trkpt lat="43.52679" lon="2.33342">
        <ele>287.92850469714</ele>
        <time>2021-04-13T08:49:33Z</time>
      </trkpt>
      <trkpt lat="43.52673" lon="2.33334">
        <ele>285.69344074068</ele>
        <time>2021-04-13T08:49:39Z</time>
      </trkpt>
      <trkpt lat="43.52673" lon="2.33322">
        <ele>285.29549887129</ele>
        <time>2021-04-13T08:49:48Z</time>
      </trkpt>
      <trkpt lat="43.52676" lon="2.33311">
        <ele>285.80490564205</ele>
        <time>2021-04-13T08:49:54Z</time>
      </trkpt>
      <trkpt lat="43.52675" lon="2.333">
        <ele>287.0025629877</ele>
        <time>2021-04-13T08:50:01Z</time>
      </trkpt>
      <trkpt lat="43.52683" lon="2.33301">
        <ele>289.56437585337</ele>
        <time>2021-04-13T08:50:16Z</time>
      </trkpt>
      <trkpt lat="43.52691" lon="2.33304">
        <ele>289.46053958991</ele>
        <time>2021-04-13T08:50:22Z</time>
      </trkpt>
      <trkpt lat="43.52699" lon="2.33304">
        <ele>289.20627576762</ele>
        <time>2021-04-13T08:50:29Z</time>
      </trkpt>
      <trkpt lat="43.52708" lon="2.33306">
        <ele>287.87166070992</ele>
        <time>2021-04-13T08:50:37Z</time>
      </trkpt>
      <trkpt lat="43.52717" lon="2.33308">
        <ele>285.80336844299</ele>
        <time>2021-04-13T08:50:47Z</time>
      </trkpt>
      <trkpt lat="43.52724" lon="2.33309">
        <ele>283.79429028338</ele>
        <time>2021-04-13T08:51:25Z</time>
      </trkpt>
      <trkpt lat="43.52733" lon="2.33307">
        <ele>283.71524534394</ele>
        <time>2021-04-13T08:51:32Z</time>
      </trkpt>
      <trkpt lat="43.52741" lon="2.33305">
        <ele>283.2563192009</ele>
        <time>2021-04-13T08:51:38Z</time>
      </trkpt>
      <trkpt lat="43.52749" lon="2.33302">
        <ele>282.30604082645</ele>
        <time>2021-04-13T08:51:45Z</time>
      </trkpt>
      <trkpt lat="43.52757" lon="2.333">
        <ele>279.82534059441</ele>
        <time>2021-04-13T08:51:52Z</time>
      </trkpt>
      <trkpt lat="43.52765" lon="2.33299">
        <ele>277.4902202579</ele>
        <time>2021-04-13T08:52:00Z</time>
      </trkpt>
      <trkpt lat="43.52774" lon="2.33294">
        <ele>276.44306633357</ele>
        <time>2021-04-13T08:52:09Z</time>
      </trkpt>
      <trkpt lat="43.5278" lon="2.33287">
        <ele>276.48610174772</ele>
        <time>2021-04-13T08:52:16Z</time>
      </trkpt>
      <trkpt lat="43.52786" lon="2.33278">
        <ele>274.35708744983</ele>
        <time>2021-04-13T08:52:26Z</time>
      </trkpt>
      <trkpt lat="43.52793" lon="2.33272">
        <ele>274.05644317519</ele>
        <time>2021-04-13T08:52:37Z</time>
      </trkpt>
      <trkpt lat="43.52797" lon="2.33263">
        <ele>273.34602133104</ele>
        <time>2021-04-13T08:52:43Z</time>
      </trkpt>
      <trkpt lat="43.52799" lon="2.33252">
        <ele>272.17142158137</ele>
        <time>2021-04-13T08:52:50Z</time>
      </trkpt>
      <trkpt lat="43.52802" lon="2.3324">
        <ele>270.68896883376</ele>
        <time>2021-04-13T08:53:26Z</time>
      </trkpt>
      <trkpt lat="43.52807" lon="2.3323">
        <ele>268.2417195915</ele>
        <time>2021-04-13T08:53:36Z</time>
      </trkpt>
      <trkpt lat="43.52811" lon="2.3322">
        <ele>267.51192591233</ele>
        <time>2021-04-13T08:53:46Z</time>
      </trkpt>
      <trkpt lat="43.52815" lon="2.3321">
        <ele>266.46460022744</ele>
        <time>2021-04-13T08:53:54Z</time>
      </trkpt>
      <trkpt lat="43.52817" lon="2.332">
        <ele>265.02220211084</ele>
        <time>2021-04-13T08:54:01Z</time>
      </trkpt>
      <trkpt lat="43.52818" lon="2.33189">
        <ele>264.62007041053</ele>
        <time>2021-04-13T08:54:09Z</time>
      </trkpt>
      <trkpt lat="43.52814" lon="2.33178">
        <ele>264.19787530085</ele>
        <time>2021-04-13T08:54:29Z</time>
      </trkpt>
      <trkpt lat="43.52807" lon="2.33173">
        <ele>263.11399741771</ele>
        <time>2021-04-13T08:54:37Z</time>
      </trkpt>
      <trkpt lat="43.52799" lon="2.33169">
        <ele>261.28639097177</ele>
        <time>2021-04-13T08:54:46Z</time>
      </trkpt>
      <trkpt lat="43.52791" lon="2.33165">
        <ele>259.42874681081</ele>
        <time>2021-04-13T08:54:56Z</time>
      </trkpt>
      <trkpt lat="43.52785" lon="2.33157">
        <ele>258.78658759466</ele>
        <time>2021-04-13T08:55:04Z</time>
      </trkpt>
      <trkpt lat="43.52786" lon="2.33145">
        <ele>258.16011641586</ele>
        <time>2021-04-13T08:55:11Z</time>
      </trkpt>
      <trkpt lat="43.52791" lon="2.33136">
        <ele>257.5141971185</ele>
        <time>2021-04-13T08:55:22Z</time>
      </trkpt>
      <trkpt lat="43.52798" lon="2.33129">
        <ele>256.92692604503</ele>
        <time>2021-04-13T08:55:32Z</time>
      </trkpt>
      <trkpt lat="43.52804" lon="2.33122">
        <ele>255.72502337128</ele>
        <time>2021-04-13T08:55:41Z</time>
      </trkpt>
      <trkpt lat="43.52811" lon="2.33114">
        <ele>251.03147394853</ele>
        <time>2021-04-13T08:55:54Z</time>
      </trkpt>
      <trkpt lat="43.52818" lon="2.33106">
        <ele>250.23093650539</ele>
        <time>2021-04-13T08:56:02Z</time>
      </trkpt>
      <trkpt lat="43.52825" lon="2.331">
        <ele>247.7406171808</ele>
        <time>2021-04-13T08:56:13Z</time>
      </trkpt>
      <trkpt lat="43.52832" lon="2.33093">
        <ele>245.04878137858</ele>
        <time>2021-04-13T08:56:22Z</time>
      </trkpt>
      <trkpt lat="43.52838" lon="2.33085">
        <ele>244.82960268964</ele>
        <time>2021-04-13T08:56:30Z</time>
      </trkpt>
      <trkpt lat="43.52844" lon="2.33077">
        <ele>245.10339417263</ele>
        <time>2021-04-13T08:56:38Z</time>
      </trkpt>
      <trkpt lat="43.52849" lon="2.33067">
        <ele>243.16506468538</ele>
        <time>2021-04-13T08:56:48Z</time>
      </trkpt>
      <trkpt lat="43.52854" lon="2.33057">
        <ele>240.30964496311</ele>
        <time>2021-04-13T08:56:57Z</time>
      </trkpt>
      <trkpt lat="43.52859" lon="2.33049">
        <ele>240.21306262566</ele>
        <time>2021-04-13T08:57:05Z</time>
      </trkpt>
      <trkpt lat="43.52866" lon="2.33042">
        <ele>239.12355762056</ele>
        <time>2021-04-13T08:57:16Z</time>
      </trkpt>
      <trkpt lat="43.52874" lon="2.33037">
        <ele>239.20892667039</ele>
        <time>2021-04-13T08:57:26Z</time>
      </trkpt>
      <trkpt lat="43.52883" lon="2.33034">
        <ele>241.34307765901</ele>
        <time>2021-04-13T08:57:40Z</time>
      </trkpt>
      <trkpt lat="43.52889" lon="2.33029">
        <ele>242.74158283098</ele>
        <time>2021-04-13T08:57:45Z</time>
      </trkpt>
      <trkpt lat="43.52897" lon="2.33022">
        <ele>243.60037575549</ele>
        <time>2021-04-13T08:57:50Z</time>
      </trkpt>
      <trkpt lat="43.52902" lon="2.33016">
        <ele>244.58501108844</ele>
        <time>2021-04-13T08:57:54Z</time>
      </trkpt>
      <trkpt lat="43.52907" lon="2.33007">
        <ele>246.41784163933</ele>
        <time>2021-04-13T08:58:00Z</time>
      </trkpt>
      <trkpt lat="43.52913" lon="2.32998">
        <ele>247.18583480999</ele>
        <time>2021-04-13T08:58:06Z</time>
      </trkpt>
      <trkpt lat="43.52916" lon="2.32987">
        <ele>249.29423069472</ele>
        <time>2021-04-13T08:58:31Z</time>
      </trkpt>
      <trkpt lat="43.52924" lon="2.32984">
        <ele>250.44695983148</ele>
        <time>2021-04-13T08:59:24Z</time>
      </trkpt>
      <trkpt lat="43.52932" lon="2.32983">
        <ele>245.29357802445</ele>
        <time>2021-04-13T09:01:16Z</time>
      </trkpt>
      <trkpt lat="43.5294" lon="2.32977">
        <ele>240.18287200926</ele>
        <time>2021-04-13T09:01:27Z</time>
      </trkpt>
      <trkpt lat="43.52948" lon="2.32973">
        <ele>238.63969016154</ele>
        <time>2021-04-13T09:01:39Z</time>
      </trkpt>
      <trkpt lat="43.52955" lon="2.32967">
        <ele>238.01354002665</ele>
        <time>2021-04-13T09:01:54Z</time>
      </trkpt>
      <trkpt lat="43.52961" lon="2.32959">
        <ele>240.47429868489</ele>
        <time>2021-04-13T09:02:03Z</time>
      </trkpt>
      <trkpt lat="43.52966" lon="2.3295">
        <ele>241.46699789694</ele>
        <time>2021-04-13T09:02:21Z</time>
      </trkpt>
      <trkpt lat="43.5297" lon="2.3294">
        <ele>239.73921132365</ele>
        <time>2021-04-13T09:02:30Z</time>
      </trkpt>
      <trkpt lat="43.52973" lon="2.3293">
        <ele>237.97437373058</ele>
        <time>2021-04-13T09:02:38Z</time>
      </trkpt>
      <trkpt lat="43.52975" lon="2.32918">
        <ele>235.71847910252</ele>
        <time>2021-04-13T09:02:46Z</time>
      </trkpt>
      <trkpt lat="43.52976" lon="2.32906">
        <ele>235.43668931848</ele>
        <time>2021-04-13T09:02:54Z</time>
      </trkpt>
      <trkpt lat="43.52978" lon="2.32895">
        <ele>234.46829770024</ele>
        <time>2021-04-13T09:03:02Z</time>
      </trkpt>
      <trkpt lat="43.52978" lon="2.32884">
        <ele>233.92313994582</ele>
        <time>2021-04-13T09:03:08Z</time>
      </trkpt>
      <trkpt lat="43.52981" lon="2.32873">
        <ele>233.20660692613</ele>
        <time>2021-04-13T09:03:16Z</time>
      </trkpt>
      <trkpt lat="43.52983" lon="2.32862">
        <ele>232.83162762448</ele>
        <time>2021-04-13T09:03:23Z</time>
      </trkpt>
      <trkpt lat="43.52985" lon="2.32852">
        <ele>231.50520991241</ele>
        <time>2021-04-13T09:03:30Z</time>
      </trkpt>
      <trkpt lat="43.52985" lon="2.3284">
        <ele>229.41000810107</ele>
        <time>2021-04-13T09:03:38Z</time>
      </trkpt>
      <trkpt lat="43.52986" lon="2.32829">
        <ele>228.88598062519</ele>
        <time>2021-04-13T09:03:45Z</time>
      </trkpt>
      <trkpt lat="43.52986" lon="2.32818">
        <ele>228.75163202482</ele>
        <time>2021-04-13T09:03:51Z</time>
      </trkpt>
      <trkpt lat="43.52988" lon="2.32805">
        <ele>228.18020514828</ele>
        <time>2021-04-13T09:04:09Z</time>
      </trkpt>
      <trkpt lat="43.52986" lon="2.32794">
        <ele>228.48766893354</ele>
        <time>2021-04-13T09:04:14Z</time>
      </trkpt>
      <trkpt lat="43.52987" lon="2.32784">
        <ele>227.91773677623</ele>
        <time>2021-04-13T09:04:19Z</time>
      </trkpt>
      <trkpt lat="43.52987" lon="2.32773">
        <ele>228.05428478917</ele>
        <time>2021-04-13T09:04:25Z</time>
      </trkpt>
      <trkpt lat="43.52989" lon="2.32762">
        <ele>227.6800224863</ele>
        <time>2021-04-13T09:04:32Z</time>
      </trkpt>
      <trkpt lat="43.52989" lon="2.32751">
        <ele>226.58888407398</ele>
        <time>2021-04-13T09:04:39Z</time>
      </trkpt>
      <trkpt lat="43.52989" lon="2.32739">
        <ele>229.19960423434</ele>
        <time>2021-04-13T09:04:47Z</time>
      </trkpt>
      <trkpt lat="43.5299" lon="2.32728">
        <ele>227.78315818187</ele>
        <time>2021-04-13T09:04:53Z</time>
      </trkpt>
      <trkpt lat="43.5299" lon="2.32717">
        <ele>227.13701697828</ele>
        <time>2021-04-13T09:05:00Z</time>
      </trkpt>
      <trkpt lat="43.52988" lon="2.32706">
        <ele>227.34924549442</ele>
        <time>2021-04-13T09:05:08Z</time>
      </trkpt>
      <trkpt lat="43.52991" lon="2.32694">
        <ele>226.2722552093</ele>
        <time>2021-04-13T09:05:15Z</time>
      </trkpt>
      <trkpt lat="43.52993" lon="2.32683">
        <ele>224.87287221786</ele>
        <time>2021-04-13T09:05:21Z</time>
      </trkpt>
      <trkpt lat="43.52995" lon="2.32671">
        <ele>226.05152665228</ele>
        <time>2021-04-13T09:05:28Z</time>
      </trkpt>
      <trkpt lat="43.52999" lon="2.32662">
        <ele>226.38937568328</ele>
        <time>2021-04-13T09:05:35Z</time>
      </trkpt>
      <trkpt lat="43.53003" lon="2.32651">
        <ele>226.89779112398</ele>
        <time>2021-04-13T09:05:43Z</time>
      </trkpt>
      <trkpt lat="43.53006" lon="2.32641">
        <ele>226.69915278541</ele>
        <time>2021-04-13T09:05:49Z</time>
      </trkpt>
      <trkpt lat="43.53011" lon="2.32632">
        <ele>226.27109825281</ele>
        <time>2021-04-13T09:05:55Z</time>
      </trkpt>
      <trkpt lat="43.53015" lon="2.32622">
        <ele>226.49721467515</ele>
        <time>2021-04-13T09:06:01Z</time>
      </trkpt>
      <trkpt lat="43.53021" lon="2.32613">
        <ele>227.6932649748</ele>
        <time>2021-04-13T09:06:08Z</time>
      </trkpt>
      <trkpt lat="43.53028" lon="2.32606">
        <ele>228.75516265717</ele>
        <time>2021-04-13T09:06:17Z</time>
      </trkpt>
      <trkpt lat="43.53034" lon="2.32598">
        <ele>230.49297315373</ele>
        <time>2021-04-13T09:06:22Z</time>
      </trkpt>
      <trkpt lat="43.53038" lon="2.32588">
        <ele>232.94066138869</ele>
        <time>2021-04-13T09:06:27Z</time>
      </trkpt>
      <trkpt lat="43.53043" lon="2.3258">
        <ele>234.63979766725</ele>
        <time>2021-04-13T09:06:33Z</time>
      </trkpt>
      <trkpt lat="43.53049" lon="2.32572">
        <ele>236.31155249678</ele>
        <time>2021-04-13T09:06:40Z</time>
      </trkpt>
      <trkpt lat="43.53055" lon="2.32564">
        <ele>237.99948156237</ele>
        <time>2021-04-13T09:06:47Z</time>
      </trkpt>
      <trkpt lat="43.5306" lon="2.32556">
        <ele>238.60883536149</ele>
        <time>2021-04-13T09:06:53Z</time>
      </trkpt>
      <trkpt lat="43.53066" lon="2.32549">
        <ele>238.32207819963</ele>
        <time>2021-04-13T09:06:59Z</time>
      </trkpt>
      <trkpt lat="43.53072" lon="2.32541">
        <ele>237.50426067969</ele>
        <time>2021-04-13T09:07:05Z</time>
      </trkpt>
      <trkpt lat="43.53076" lon="2.3253">
        <ele>237.14399897524</ele>
        <time>2021-04-13T09:07:12Z</time>
      </trkpt>
      <trkpt lat="43.53082" lon="2.32522">
        <ele>237.64839123252</ele>
        <time>2021-04-13T09:07:19Z</time>
      </trkpt>
      <trkpt lat="43.53088" lon="2.32513">
        <ele>236.88767648957</ele>
        <time>2021-04-13T09:07:26Z</time>
      </trkpt>
      <trkpt lat="43.53094" lon="2.32507">
        <ele>236.08352414547</ele>
        <time>2021-04-13T09:07:32Z</time>
      </trkpt>
      <trkpt lat="43.53101" lon="2.32499">
        <ele>236.0763268973</ele>
        <time>2021-04-13T09:07:38Z</time>
      </trkpt>
      <trkpt lat="43.53107" lon="2.32491">
        <ele>235.97366763328</ele>
        <time>2021-04-13T09:07:44Z</time>
      </trkpt>
      <trkpt lat="43.53112" lon="2.32482">
        <ele>236.90261299113</ele>
        <time>2021-04-13T09:07:51Z</time>
      </trkpt>
      <trkpt lat="43.53119" lon="2.32475">
        <ele>238.49840937706</ele>
        <time>2021-04-13T09:07:59Z</time>
      </trkpt>
      <trkpt lat="43.53125" lon="2.3247">
        <ele>238.8946807524</ele>
        <time>2021-04-13T09:08:04Z</time>
      </trkpt>
      <trkpt lat="43.53131" lon="2.32463">
        <ele>239.35510808274</ele>
        <time>2021-04-13T09:08:08Z</time>
      </trkpt>
      <trkpt lat="43.53139" lon="2.32459">
        <ele>239.68947230958</ele>
        <time>2021-04-13T09:08:17Z</time>
      </trkpt>
      <trkpt lat="43.53145" lon="2.32451">
        <ele>239.48769440144</ele>
        <time>2021-04-13T09:08:32Z</time>
      </trkpt>
      <trkpt lat="43.53153" lon="2.32446">
        <ele>239.18372819119</ele>
        <time>2021-04-13T09:08:39Z</time>
      </trkpt>
      <trkpt lat="43.53161" lon="2.32442">
        <ele>239.71243842868</ele>
        <time>2021-04-13T09:08:44Z</time>
      </trkpt>
      <trkpt lat="43.53171" lon="2.32431">
        <ele>239.10733958427</ele>
        <time>2021-04-13T09:08:49Z</time>
      </trkpt>
      <trkpt lat="43.53177" lon="2.32424">
        <ele>237.64399183418</ele>
        <time>2021-04-13T09:08:55Z</time>
      </trkpt>
      <trkpt lat="43.53183" lon="2.32415">
        <ele>236.33630218614</ele>
        <time>2021-04-13T09:09:01Z</time>
      </trkpt>
      <trkpt lat="43.53189" lon="2.32407">
        <ele>236.58444931319</ele>
        <time>2021-04-13T09:09:06Z</time>
      </trkpt>
      <trkpt lat="43.53196" lon="2.32399">
        <ele>236.5886093165</ele>
        <time>2021-04-13T09:09:11Z</time>
      </trkpt>
      <trkpt lat="43.53203" lon="2.32393">
        <ele>235.76746874469</ele>
        <time>2021-04-13T09:09:16Z</time>
      </trkpt>
      <trkpt lat="43.5321" lon="2.32386">
        <ele>235.26419549659</ele>
        <time>2021-04-13T09:09:23Z</time>
      </trkpt>
      <trkpt lat="43.53214" lon="2.32375">
        <ele>235.61072829504</ele>
        <time>2021-04-13T09:09:28Z</time>
      </trkpt>
      <trkpt lat="43.53217" lon="2.32364">
        <ele>235.86212606807</ele>
        <time>2021-04-13T09:09:36Z</time>
      </trkpt>
      <trkpt lat="43.53223" lon="2.32357">
        <ele>235.51131642687</ele>
        <time>2021-04-13T09:09:43Z</time>
      </trkpt>
      <trkpt lat="43.53227" lon="2.32346">
        <ele>235.723673668</ele>
        <time>2021-04-13T09:09:50Z</time>
      </trkpt>
      <trkpt lat="43.5323" lon="2.32336">
        <ele>234.64382101645</ele>
        <time>2021-04-13T09:09:57Z</time>
      </trkpt>
      <trkpt lat="43.53234" lon="2.32326">
        <ele>232.52392897742</ele>
        <time>2021-04-13T09:10:04Z</time>
      </trkpt>
      <trkpt lat="43.5324" lon="2.32317">
        <ele>230.60621789955</ele>
        <time>2021-04-13T09:10:10Z</time>
      </trkpt>
      <trkpt lat="43.53244" lon="2.32309">
        <ele>228.57569922034</ele>
        <time>2021-04-13T09:10:16Z</time>
      </trkpt>
      <trkpt lat="43.53249" lon="2.32299">
        <ele>226.79556753909</ele>
        <time>2021-04-13T09:10:23Z</time>
      </trkpt>
      <trkpt lat="43.53254" lon="2.3229">
        <ele>226.34079720446</ele>
        <time>2021-04-13T09:10:31Z</time>
      </trkpt>
      <trkpt lat="43.53256" lon="2.32279">
        <ele>224.82047734848</ele>
        <time>2021-04-13T09:10:41Z</time>
      </trkpt>
      <trkpt lat="43.53257" lon="2.32269">
        <ele>224.57474754677</ele>
        <time>2021-04-13T09:10:49Z</time>
      </trkpt>
      <trkpt lat="43.53259" lon="2.32258">
        <ele>224.82705348142</ele>
        <time>2021-04-13T09:10:57Z</time>
      </trkpt>
      <trkpt lat="43.53258" lon="2.32246">
        <ele>226.28688044089</ele>
        <time>2021-04-13T09:11:04Z</time>
      </trkpt>
      <trkpt lat="43.5326" lon="2.32235">
        <ele>226.96258004682</ele>
        <time>2021-04-13T09:11:11Z</time>
      </trkpt>
      <trkpt lat="43.53261" lon="2.32223">
        <ele>227.83536922708</ele>
        <time>2021-04-13T09:11:17Z</time>
      </trkpt>
      <trkpt lat="43.53263" lon="2.32211">
        <ele>228.753596694</ele>
        <time>2021-04-13T09:11:25Z</time>
      </trkpt>
      <trkpt lat="43.53263" lon="2.322">
        <ele>228.45827569765</ele>
        <time>2021-04-13T09:11:32Z</time>
      </trkpt>
      <trkpt lat="43.53265" lon="2.3219">
        <ele>228.57495419062</ele>
        <time>2021-04-13T09:11:38Z</time>
      </trkpt>
      <trkpt lat="43.53268" lon="2.32179">
        <ele>227.95781771874</ele>
        <time>2021-04-13T09:11:46Z</time>
      </trkpt>
      <trkpt lat="43.53271" lon="2.32167">
        <ele>227.65637633513</ele>
        <time>2021-04-13T09:11:55Z</time>
      </trkpt>
      <trkpt lat="43.53273" lon="2.32156">
        <ele>227.71973947233</ele>
        <time>2021-04-13T09:12:01Z</time>
      </trkpt>
      <trkpt lat="43.53275" lon="2.32145">
        <ele>226.63233611136</ele>
        <time>2021-04-13T09:12:07Z</time>
      </trkpt>
      <trkpt lat="43.53279" lon="2.32135">
        <ele>225.23775365517</ele>
        <time>2021-04-13T09:12:14Z</time>
      </trkpt>
      <trkpt lat="43.53283" lon="2.32124">
        <ele>224.77472742104</ele>
        <time>2021-04-13T09:12:22Z</time>
      </trkpt>
      <trkpt lat="43.53287" lon="2.32114">
        <ele>224.42583246338</ele>
        <time>2021-04-13T09:12:30Z</time>
      </trkpt>
      <trkpt lat="43.53292" lon="2.32103">
        <ele>223.41263306658</ele>
        <time>2021-04-13T09:12:37Z</time>
      </trkpt>
      <trkpt lat="43.53295" lon="2.32094">
        <ele>222.91923796178</ele>
        <time>2021-04-13T09:12:56Z</time>
      </trkpt>
      <trkpt lat="43.53299" lon="2.32084">
        <ele>222.61819763085</ele>
        <time>2021-04-13T09:13:04Z</time>
      </trkpt>
      <trkpt lat="43.53302" lon="2.32073">
        <ele>220.67380918892</ele>
        <time>2021-04-13T09:13:14Z</time>
      </trkpt>
      <trkpt lat="43.53305" lon="2.32062">
        <ele>220.68907525608</ele>
        <time>2021-04-13T09:13:23Z</time>
      </trkpt>
      <trkpt lat="43.53308" lon="2.3205">
        <ele>219.79811413232</ele>
        <time>2021-04-13T09:13:33Z</time>
      </trkpt>
      <trkpt lat="43.53312" lon="2.3204">
        <ele>219.37081726797</ele>
        <time>2021-04-13T09:13:43Z</time>
      </trkpt>
      <trkpt lat="43.53315" lon="2.3203">
        <ele>219.68862644814</ele>
        <time>2021-04-13T09:14:00Z</time>
      </trkpt>
      <trkpt lat="43.53319" lon="2.3202">
        <ele>218.49086670041</ele>
        <time>2021-04-13T09:14:19Z</time>
      </trkpt>
      <trkpt lat="43.53326" lon="2.32013">
        <ele>217.64066330872</ele>
        <time>2021-04-13T09:14:27Z</time>
      </trkpt>
      <trkpt lat="43.53331" lon="2.32004">
        <ele>218.88887765152</ele>
        <time>2021-04-13T09:14:33Z</time>
      </trkpt>
      <trkpt lat="43.53336" lon="2.31995">
        <ele>219.65556865447</ele>
        <time>2021-04-13T09:14:39Z</time>
      </trkpt>
      <trkpt lat="43.53341" lon="2.31986">
        <ele>217.92189461907</ele>
        <time>2021-04-13T09:14:45Z</time>
      </trkpt>
      <trkpt lat="43.53345" lon="2.31976">
        <ele>215.85768564447</ele>
        <time>2021-04-13T09:14:51Z</time>
      </trkpt>
      <trkpt lat="43.53348" lon="2.31964">
        <ele>214.79416510786</ele>
        <time>2021-04-13T09:15:00Z</time>
      </trkpt>
      <trkpt lat="43.53353" lon="2.31955">
        <ele>215.82955756833</ele>
        <time>2021-04-13T09:15:07Z</time>
      </trkpt>
      <trkpt lat="43.53354" lon="2.31943">
        <ele>217.62632181983</ele>
        <time>2021-04-13T09:15:20Z</time>
      </trkpt>
      <trkpt lat="43.53352" lon="2.31932">
        <ele>219.88706067792</ele>
        <time>2021-04-13T09:15:28Z</time>
      </trkpt>
      <trkpt lat="43.53352" lon="2.31921">
        <ele>219.4580540376</ele>
        <time>2021-04-13T09:15:35Z</time>
      </trkpt>
      <trkpt lat="43.53351" lon="2.31909">
        <ele>219.89168782377</ele>
        <time>2021-04-13T09:15:44Z</time>
      </trkpt>
      <trkpt lat="43.53348" lon="2.31898">
        <ele>223.04727714238</ele>
        <time>2021-04-13T09:15:52Z</time>
      </trkpt>
      <trkpt lat="43.53346" lon="2.31887">
        <ele>224.76432477414</ele>
        <time>2021-04-13T09:15:58Z</time>
      </trkpt>
      <trkpt lat="43.53344" lon="2.31876">
        <ele>227.05135114218</ele>
        <time>2021-04-13T09:16:05Z</time>
      </trkpt>
      <trkpt lat="43.53341" lon="2.31865">
        <ele>228.21526266216</ele>
        <time>2021-04-13T09:16:12Z</time>
      </trkpt>
      <trkpt lat="43.53336" lon="2.31855">
        <ele>228.73638210268</ele>
        <time>2021-04-13T09:16:19Z</time>
      </trkpt>
      <trkpt lat="43.53333" lon="2.31845">
        <ele>226.97336670897</ele>
        <time>2021-04-13T09:16:25Z</time>
      </trkpt>
      <trkpt lat="43.53329" lon="2.31835">
        <ele>224.92921119849</ele>
        <time>2021-04-13T09:16:32Z</time>
      </trkpt>
      <trkpt lat="43.53325" lon="2.31825">
        <ele>224.96420837061</ele>
        <time>2021-04-13T09:16:39Z</time>
      </trkpt>
      <trkpt lat="43.5332" lon="2.31814">
        <ele>223.77476174348</ele>
        <time>2021-04-13T09:16:47Z</time>
      </trkpt>
      <trkpt lat="43.53314" lon="2.31805">
        <ele>224.24723762601</ele>
        <time>2021-04-13T09:16:54Z</time>
      </trkpt>
      <trkpt lat="43.53308" lon="2.31796">
        <ele>226.10848913473</ele>
        <time>2021-04-13T09:17:03Z</time>
      </trkpt>
      <trkpt lat="43.53302" lon="2.31789">
        <ele>226.15770849867</ele>
        <time>2021-04-13T09:17:10Z</time>
      </trkpt>
      <trkpt lat="43.53298" lon="2.31779">
        <ele>225.98190374292</ele>
        <time>2021-04-13T09:17:16Z</time>
      </trkpt>
      <trkpt lat="43.53293" lon="2.3177">
        <ele>227.31385273072</ele>
        <time>2021-04-13T09:17:23Z</time>
      </trkpt>
      <trkpt lat="43.53288" lon="2.31761">
        <ele>227.53809534413</ele>
        <time>2021-04-13T09:17:29Z</time>
      </trkpt>
      <trkpt lat="43.53282" lon="2.31753">
        <ele>227.78629821424</ele>
        <time>2021-04-13T09:17:36Z</time>
      </trkpt>
      <trkpt lat="43.53277" lon="2.31745">
        <ele>227.58363195594</ele>
        <time>2021-04-13T09:17:42Z</time>
      </trkpt>
      <trkpt lat="43.53272" lon="2.31736">
        <ele>226.93558263249</ele>
        <time>2021-04-13T09:17:49Z</time>
      </trkpt>
      <trkpt lat="43.53266" lon="2.31728">
        <ele>227.39201528455</ele>
        <time>2021-04-13T09:17:55Z</time>
      </trkpt>
      <trkpt lat="43.53261" lon="2.31719">
        <ele>225.00058658324</ele>
        <time>2021-04-13T09:18:03Z</time>
      </trkpt>
      <trkpt lat="43.53256" lon="2.31711">
        <ele>222.38664750303</ele>
        <time>2021-04-13T09:18:10Z</time>
      </trkpt>
      <trkpt lat="43.5325" lon="2.31703">
        <ele>221.39616215893</ele>
        <time>2021-04-13T09:18:18Z</time>
      </trkpt>
      <trkpt lat="43.53244" lon="2.31694">
        <ele>221.15748118216</ele>
        <time>2021-04-13T09:18:26Z</time>
      </trkpt>
      <trkpt lat="43.5324" lon="2.31684">
        <ele>221.07367010536</ele>
        <time>2021-04-13T09:18:33Z</time>
      </trkpt>
      <trkpt lat="43.53235" lon="2.31674">
        <ele>221.40623321263</ele>
        <time>2021-04-13T09:18:39Z</time>
      </trkpt>
      <trkpt lat="43.5323" lon="2.31665">
        <ele>220.33350969823</ele>
        <time>2021-04-13T09:18:45Z</time>
      </trkpt>
      <trkpt lat="43.53225" lon="2.31657">
        <ele>219.24157790657</ele>
        <time>2021-04-13T09:18:51Z</time>
      </trkpt>
      <trkpt lat="43.53221" lon="2.31647">
        <ele>218.01615300311</ele>
        <time>2021-04-13T09:18:57Z</time>
      </trkpt>
      <trkpt lat="43.53216" lon="2.31639">
        <ele>217.16725482684</ele>
        <time>2021-04-13T09:19:02Z</time>
      </trkpt>
      <trkpt lat="43.5321" lon="2.31631">
        <ele>216.51620090455</ele>
        <time>2021-04-13T09:19:08Z</time>
      </trkpt>
      <trkpt lat="43.53205" lon="2.31622">
        <ele>216.33158338712</ele>
        <time>2021-04-13T09:19:13Z</time>
      </trkpt>
      <trkpt lat="43.532" lon="2.31613">
        <ele>215.46243871657</ele>
        <time>2021-04-13T09:19:20Z</time>
      </trkpt>
      <trkpt lat="43.53196" lon="2.31602">
        <ele>214.5454567133</ele>
        <time>2021-04-13T09:19:27Z</time>
      </trkpt>
      <trkpt lat="43.53193" lon="2.31591">
        <ele>212.87488423254</ele>
        <time>2021-04-13T09:19:35Z</time>
      </trkpt>
      <trkpt lat="43.53191" lon="2.3158">
        <ele>211.14969814312</ele>
        <time>2021-04-13T09:19:43Z</time>
      </trkpt>
      <trkpt lat="43.53186" lon="2.3157">
        <ele>214.29113058311</ele>
        <time>2021-04-13T09:20:31Z</time>
      </trkpt>
      <trkpt lat="43.53182" lon="2.31561">
        <ele>215.49311750734</ele>
        <time>2021-04-13T09:20:37Z</time>
      </trkpt>
      <trkpt lat="43.53178" lon="2.3155">
        <ele>216.58168132625</ele>
        <time>2021-04-13T09:20:45Z</time>
      </trkpt>
      <trkpt lat="43.53176" lon="2.31539">
        <ele>216.51482863833</ele>
        <time>2021-04-13T09:20:55Z</time>
      </trkpt>
      <trkpt lat="43.53172" lon="2.31528">
        <ele>217.40055584905</ele>
        <time>2021-04-13T09:22:32Z</time>
      </trkpt>
      <trkpt lat="43.53167" lon="2.31518">
        <ele>215.54635342043</ele>
        <time>2021-04-13T09:23:07Z</time>
      </trkpt>
      <trkpt lat="43.53162" lon="2.31508">
        <ele>212.73679625621</ele>
        <time>2021-04-13T09:23:16Z</time>
      </trkpt>
      <trkpt lat="43.53157" lon="2.31497">
        <ele>212.40784583182</ele>
        <time>2021-04-13T09:23:26Z</time>
      </trkpt>
      <trkpt lat="43.53154" lon="2.31487">
        <ele>212.62083319046</ele>
        <time>2021-04-13T09:23:34Z</time>
      </trkpt>
      <trkpt lat="43.53152" lon="2.31477">
        <ele>214.70680781147</ele>
        <time>2021-04-13T09:23:41Z</time>
      </trkpt>
      <trkpt lat="43.53149" lon="2.31465">
        <ele>214.01142227562</ele>
        <time>2021-04-13T09:23:48Z</time>
      </trkpt>
      <trkpt lat="43.53147" lon="2.31453">
        <ele>213.14559186853</ele>
        <time>2021-04-13T09:23:55Z</time>
      </trkpt>
      <trkpt lat="43.53146" lon="2.31441">
        <ele>212.80596320217</ele>
        <time>2021-04-13T09:24:03Z</time>
      </trkpt>
      <trkpt lat="43.53144" lon="2.3143">
        <ele>213.10489063318</ele>
        <time>2021-04-13T09:24:09Z</time>
      </trkpt>
      <trkpt lat="43.53143" lon="2.31419">
        <ele>214.29228205038</ele>
        <time>2021-04-13T09:24:17Z</time>
      </trkpt>
      <trkpt lat="43.53143" lon="2.31406">
        <ele>215.76675777423</ele>
        <time>2021-04-13T09:24:25Z</time>
      </trkpt>
      <trkpt lat="43.5314" lon="2.31395">
        <ele>217.55789515508</ele>
        <time>2021-04-13T09:24:31Z</time>
      </trkpt>
      <trkpt lat="43.53139" lon="2.31384">
        <ele>218.19004600348</ele>
        <time>2021-04-13T09:24:37Z</time>
      </trkpt>
      <trkpt lat="43.53135" lon="2.31374">
        <ele>218.87414033762</ele>
        <time>2021-04-13T09:24:43Z</time>
      </trkpt>
      <trkpt lat="43.53131" lon="2.31364">
        <ele>218.42624062559</ele>
        <time>2021-04-13T09:24:49Z</time>
      </trkpt>
      <trkpt lat="43.53126" lon="2.31354">
        <ele>219.27510861529</ele>
        <time>2021-04-13T09:24:57Z</time>
      </trkpt>
      <trkpt lat="43.53121" lon="2.31344">
        <ele>220.26951482715</ele>
        <time>2021-04-13T09:25:05Z</time>
      </trkpt>
      <trkpt lat="43.53118" lon="2.31333">
        <ele>220.71807738738</ele>
        <time>2021-04-13T09:25:13Z</time>
      </trkpt>
      <trkpt lat="43.53113" lon="2.31322">
        <ele>219.99945693312</ele>
        <time>2021-04-13T09:25:22Z</time>
      </trkpt>
      <trkpt lat="43.5311" lon="2.31312">
        <ele>218.29201260264</ele>
        <time>2021-04-13T09:25:29Z</time>
      </trkpt>
      <trkpt lat="43.53106" lon="2.31302">
        <ele>217.51472823842</ele>
        <time>2021-04-13T09:25:35Z</time>
      </trkpt>
      <trkpt lat="43.53103" lon="2.31292">
        <ele>215.84689727231</ele>
        <time>2021-04-13T09:25:41Z</time>
      </trkpt>
      <trkpt lat="43.531" lon="2.31281">
        <ele>214.26571170308</ele>
        <time>2021-04-13T09:25:47Z</time>
      </trkpt>
      <trkpt lat="43.53095" lon="2.31272">
        <ele>214.69766483881</ele>
        <time>2021-04-13T09:25:54Z</time>
      </trkpt>
      <trkpt lat="43.53091" lon="2.31262">
        <ele>214.17487067676</ele>
        <time>2021-04-13T09:26:01Z</time>
      </trkpt>
      <trkpt lat="43.53088" lon="2.31252">
        <ele>213.79475402315</ele>
        <time>2021-04-13T09:26:06Z</time>
      </trkpt>
      <trkpt lat="43.53084" lon="2.31242">
        <ele>214.72875457875</ele>
        <time>2021-04-13T09:26:12Z</time>
      </trkpt>
      <trkpt lat="43.53082" lon="2.31231">
        <ele>214.65511330829</ele>
        <time>2021-04-13T09:26:20Z</time>
      </trkpt>
      <trkpt lat="43.5308" lon="2.31219">
        <ele>214.49726704565</ele>
        <time>2021-04-13T09:26:27Z</time>
      </trkpt>
      <trkpt lat="43.53076" lon="2.3121">
        <ele>214.60756829685</ele>
        <time>2021-04-13T09:26:34Z</time>
      </trkpt>
      <trkpt lat="43.53073" lon="2.31199">
        <ele>213.7167684166</ele>
        <time>2021-04-13T09:26:41Z</time>
      </trkpt>
      <trkpt lat="43.5307" lon="2.31188">
        <ele>213.60882249603</ele>
        <time>2021-04-13T09:26:49Z</time>
      </trkpt>
      <trkpt lat="43.53067" lon="2.31177">
        <ele>213.61461094083</ele>
        <time>2021-04-13T09:26:56Z</time>
      </trkpt>
      <trkpt lat="43.53063" lon="2.31167">
        <ele>212.77580247169</ele>
        <time>2021-04-13T09:27:03Z</time>
      </trkpt>
      <trkpt lat="43.53059" lon="2.31156">
        <ele>211.75689475237</ele>
        <time>2021-04-13T09:27:10Z</time>
      </trkpt>
      <trkpt lat="43.53053" lon="2.31147">
        <ele>212.38180174911</ele>
        <time>2021-04-13T09:27:17Z</time>
      </trkpt>
      <trkpt lat="43.5305" lon="2.31137">
        <ele>214.13795290666</ele>
        <time>2021-04-13T09:27:24Z</time>
      </trkpt>
      <trkpt lat="43.53047" lon="2.31125">
        <ele>214.40122351602</ele>
        <time>2021-04-13T09:27:33Z</time>
      </trkpt>
      <trkpt lat="43.53042" lon="2.31116">
        <ele>214.10214722076</ele>
        <time>2021-04-13T09:27:42Z</time>
      </trkpt>
      <trkpt lat="43.53038" lon="2.31107">
        <ele>215.20459055838</ele>
        <time>2021-04-13T09:27:49Z</time>
      </trkpt>
      <trkpt lat="43.53033" lon="2.31096">
        <ele>214.87034763067</ele>
        <time>2021-04-13T09:27:56Z</time>
      </trkpt>
      <trkpt lat="43.53027" lon="2.31089">
        <ele>214.717725009</ele>
        <time>2021-04-13T09:28:02Z</time>
      </trkpt>
      <trkpt lat="43.53023" lon="2.31081">
        <ele>214.40289674917</ele>
        <time>2021-04-13T09:28:07Z</time>
      </trkpt>
      <trkpt lat="43.53017" lon="2.31072">
        <ele>213.6715860304</ele>
        <time>2021-04-13T09:28:13Z</time>
      </trkpt>
      <trkpt lat="43.53012" lon="2.31064">
        <ele>213.49014723962</ele>
        <time>2021-04-13T09:28:20Z</time>
      </trkpt>
      <trkpt lat="43.53007" lon="2.31054">
        <ele>212.96716007129</ele>
        <time>2021-04-13T09:28:27Z</time>
      </trkpt>
      <trkpt lat="43.53002" lon="2.31045">
        <ele>211.91263060662</ele>
        <time>2021-04-13T09:28:34Z</time>
      </trkpt>
      <trkpt lat="43.52997" lon="2.31036">
        <ele>210.53236385996</ele>
        <time>2021-04-13T09:28:41Z</time>
      </trkpt>
      <trkpt lat="43.52993" lon="2.31025">
        <ele>210.44756862181</ele>
        <time>2021-04-13T09:28:47Z</time>
      </trkpt>
      <trkpt lat="43.52988" lon="2.31016">
        <ele>211.24369127077</ele>
        <time>2021-04-13T09:28:57Z</time>
      </trkpt>
      <trkpt lat="43.52984" lon="2.31006">
        <ele>211.7995580248</ele>
        <time>2021-04-13T09:29:05Z</time>
      </trkpt>
      <trkpt lat="43.52981" lon="2.30995">
        <ele>212.23460581733</ele>
        <time>2021-04-13T09:29:13Z</time>
      </trkpt>
      <trkpt lat="43.52977" lon="2.30985">
        <ele>212.79064861843</ele>
        <time>2021-04-13T09:29:21Z</time>
      </trkpt>
      <trkpt lat="43.52972" lon="2.30976">
        <ele>213.22984188472</ele>
        <time>2021-04-13T09:29:29Z</time>
      </trkpt>
      <trkpt lat="43.52966" lon="2.30968">
        <ele>212.68976663532</ele>
        <time>2021-04-13T09:29:35Z</time>
      </trkpt>
      <trkpt lat="43.52962" lon="2.30959">
        <ele>211.57785016363</ele>
        <time>2021-04-13T09:29:41Z</time>
      </trkpt>
      <trkpt lat="43.52955" lon="2.30951">
        <ele>211.27299555219</ele>
        <time>2021-04-13T09:29:47Z</time>
      </trkpt>
      <trkpt lat="43.52949" lon="2.30943">
        <ele>210.9821541895</ele>
        <time>2021-04-13T09:29:52Z</time>
      </trkpt>
      <trkpt lat="43.52945" lon="2.30935">
        <ele>209.69945668197</ele>
        <time>2021-04-13T09:29:58Z</time>
      </trkpt>
      <trkpt lat="43.5294" lon="2.30926">
        <ele>207.92401860298</ele>
        <time>2021-04-13T09:30:05Z</time>
      </trkpt>
      <trkpt lat="43.52936" lon="2.30916">
        <ele>206.18207789303</ele>
        <time>2021-04-13T09:30:12Z</time>
      </trkpt>
      <trkpt lat="43.52931" lon="2.30906">
        <ele>206.05950165628</ele>
        <time>2021-04-13T09:30:18Z</time>
      </trkpt>
      <trkpt lat="43.52925" lon="2.30899">
        <ele>206.13289263427</ele>
        <time>2021-04-13T09:30:25Z</time>
      </trkpt>
      <trkpt lat="43.52919" lon="2.3089">
        <ele>206.60234114947</ele>
        <time>2021-04-13T09:30:33Z</time>
      </trkpt>
      <trkpt lat="43.52914" lon="2.3088">
        <ele>205.76678592034</ele>
        <time>2021-04-13T09:30:41Z</time>
      </trkpt>
      <trkpt lat="43.52907" lon="2.30873">
        <ele>206.93071679088</ele>
        <time>2021-04-13T09:30:48Z</time>
      </trkpt>
      <trkpt lat="43.52902" lon="2.30864">
        <ele>206.64653980139</ele>
        <time>2021-04-13T09:30:54Z</time>
      </trkpt>
      <trkpt lat="43.52896" lon="2.30856">
        <ele>206.10717356271</ele>
        <time>2021-04-13T09:31:00Z</time>
      </trkpt>
      <trkpt lat="43.52889" lon="2.30849">
        <ele>205.62255717419</ele>
        <time>2021-04-13T09:31:09Z</time>
      </trkpt>
      <trkpt lat="43.52882" lon="2.30843">
        <ele>205.42212016561</ele>
        <time>2021-04-13T09:31:16Z</time>
      </trkpt>
      <trkpt lat="43.52876" lon="2.30835">
        <ele>206.25739676686</ele>
        <time>2021-04-13T09:31:23Z</time>
      </trkpt>
      <trkpt lat="43.52871" lon="2.30826">
        <ele>204.9599559336</ele>
        <time>2021-04-13T09:31:29Z</time>
      </trkpt>
      <trkpt lat="43.52866" lon="2.30817">
        <ele>203.79479169284</ele>
        <time>2021-04-13T09:31:36Z</time>
      </trkpt>
      <trkpt lat="43.5286" lon="2.30808">
        <ele>203.96980162467</ele>
        <time>2021-04-13T09:31:43Z</time>
      </trkpt>
      <trkpt lat="43.52856" lon="2.30797">
        <ele>204.70452400871</ele>
        <time>2021-04-13T09:31:50Z</time>
      </trkpt>
      <trkpt lat="43.52852" lon="2.30787">
        <ele>205.32175900093</ele>
        <time>2021-04-13T09:31:59Z</time>
      </trkpt>
      <trkpt lat="43.5285" lon="2.30776">
        <ele>206.01735688249</ele>
        <time>2021-04-13T09:32:07Z</time>
      </trkpt>
      <trkpt lat="43.52848" lon="2.30765">
        <ele>206.96651297095</ele>
        <time>2021-04-13T09:32:15Z</time>
      </trkpt>
      <trkpt lat="43.52843" lon="2.30755">
        <ele>208.85696865793</ele>
        <time>2021-04-13T09:32:23Z</time>
      </trkpt>
      <trkpt lat="43.52839" lon="2.30745">
        <ele>209.53628611791</ele>
        <time>2021-04-13T09:32:32Z</time>
      </trkpt>
      <trkpt lat="43.52833" lon="2.30736">
        <ele>210.11718193177</ele>
        <time>2021-04-13T09:32:39Z</time>
      </trkpt>
      <trkpt lat="43.52828" lon="2.30726">
        <ele>210.18792513638</ele>
        <time>2021-04-13T09:32:45Z</time>
      </trkpt>
      <trkpt lat="43.52824" lon="2.30716">
        <ele>209.11799602346</ele>
        <time>2021-04-13T09:32:51Z</time>
      </trkpt>
      <trkpt lat="43.52821" lon="2.30705">
        <ele>209.61595742528</ele>
        <time>2021-04-13T09:32:57Z</time>
      </trkpt>
      <trkpt lat="43.52817" lon="2.30694">
        <ele>208.86128948316</ele>
        <time>2021-04-13T09:33:07Z</time>
      </trkpt>
      <trkpt lat="43.52813" lon="2.30684">
        <ele>207.38772955761</ele>
        <time>2021-04-13T09:33:13Z</time>
      </trkpt>
      <trkpt lat="43.5281" lon="2.30673">
        <ele>207.13738550568</ele>
        <time>2021-04-13T09:34:13Z</time>
      </trkpt>
      <trkpt lat="43.52808" lon="2.30661">
        <ele>207.36223740776</ele>
        <time>2021-04-13T09:34:20Z</time>
      </trkpt>
      <trkpt lat="43.52807" lon="2.30649">
        <ele>206.74048545556</ele>
        <time>2021-04-13T09:34:31Z</time>
      </trkpt>
      <trkpt lat="43.52804" lon="2.30638">
        <ele>206.89865527067</ele>
        <time>2021-04-13T09:34:37Z</time>
      </trkpt>
      <trkpt lat="43.52798" lon="2.30628">
        <ele>208.49033865237</ele>
        <time>2021-04-13T09:34:44Z</time>
      </trkpt>
      <trkpt lat="43.52793" lon="2.3062">
        <ele>209.75973533956</ele>
        <time>2021-04-13T09:34:49Z</time>
      </trkpt>
      <trkpt lat="43.52788" lon="2.3061">
        <ele>211.45260255036</ele>
        <time>2021-04-13T09:34:55Z</time>
      </trkpt>
      <trkpt lat="43.52782" lon="2.30605">
        <ele>211.87987461959</ele>
        <time>2021-04-13T09:35:05Z</time>
      </trkpt>
      <trkpt lat="43.52777" lon="2.30596">
        <ele>211.76056642606</ele>
        <time>2021-04-13T09:35:10Z</time>
      </trkpt>
      <trkpt lat="43.52772" lon="2.30586">
        <ele>209.69922741464</ele>
        <time>2021-04-13T09:35:17Z</time>
      </trkpt>
      <trkpt lat="43.52767" lon="2.30576">
        <ele>209.12144594552</ele>
        <time>2021-04-13T09:35:24Z</time>
      </trkpt>
      <trkpt lat="43.52762" lon="2.30567">
        <ele>206.26598602441</ele>
        <time>2021-04-13T09:35:31Z</time>
      </trkpt>
      <trkpt lat="43.5276" lon="2.30556">
        <ele>205.71930060941</ele>
        <time>2021-04-13T09:35:38Z</time>
      </trkpt>
      <trkpt lat="43.52756" lon="2.30546">
        <ele>206.55117826264</ele>
        <time>2021-04-13T09:35:53Z</time>
      </trkpt>
      <trkpt lat="43.52753" lon="2.30535">
        <ele>206.44988945718</ele>
        <time>2021-04-13T09:36:01Z</time>
      </trkpt>
      <trkpt lat="43.52749" lon="2.30525">
        <ele>206.01347617057</ele>
        <time>2021-04-13T09:36:08Z</time>
      </trkpt>
      <trkpt lat="43.52746" lon="2.30515">
        <ele>205.80306867979</ele>
        <time>2021-04-13T09:36:14Z</time>
      </trkpt>
      <trkpt lat="43.52745" lon="2.30503">
        <ele>205.32560196165</ele>
        <time>2021-04-13T09:36:20Z</time>
      </trkpt>
      <trkpt lat="43.52744" lon="2.30492">
        <ele>204.80210742228</ele>
        <time>2021-04-13T09:36:27Z</time>
      </trkpt>
      <trkpt lat="43.52743" lon="2.30481">
        <ele>205.18577681066</ele>
        <time>2021-04-13T09:36:33Z</time>
      </trkpt>
      <trkpt lat="43.52745" lon="2.30469">
        <ele>205.94976762091</ele>
        <time>2021-04-13T09:36:40Z</time>
      </trkpt>
      <trkpt lat="43.52747" lon="2.30458">
        <ele>207.57559619947</ele>
        <time>2021-04-13T09:36:50Z</time>
      </trkpt>
      <trkpt lat="43.52748" lon="2.30446">
        <ele>207.74587252006</ele>
        <time>2021-04-13T09:36:58Z</time>
      </trkpt>
      <trkpt lat="43.52749" lon="2.30435">
        <ele>207.69791620045</ele>
        <time>2021-04-13T09:37:04Z</time>
      </trkpt>
      <trkpt lat="43.5275" lon="2.30424">
        <ele>207.34509364362</ele>
        <time>2021-04-13T09:37:10Z</time>
      </trkpt>
      <trkpt lat="43.52752" lon="2.30414">
        <ele>207.08083843685</ele>
        <time>2021-04-13T09:37:16Z</time>
      </trkpt>
      <trkpt lat="43.52754" lon="2.30403">
        <ele>206.08766122452</ele>
        <time>2021-04-13T09:37:23Z</time>
      </trkpt>
      <trkpt lat="43.52755" lon="2.30391">
        <ele>205.68572860155</ele>
        <time>2021-04-13T09:37:30Z</time>
      </trkpt>
      <trkpt lat="43.52756" lon="2.30379">
        <ele>205.70333907992</ele>
        <time>2021-04-13T09:37:37Z</time>
      </trkpt>
      <trkpt lat="43.52757" lon="2.30368">
        <ele>203.91939326909</ele>
        <time>2021-04-13T09:37:44Z</time>
      </trkpt>
      <trkpt lat="43.52758" lon="2.30358">
        <ele>202.72789785802</ele>
        <time>2021-04-13T09:37:50Z</time>
      </trkpt>
      <trkpt lat="43.5276" lon="2.30346">
        <ele>202.1885174509</ele>
        <time>2021-04-13T09:37:57Z</time>
      </trkpt>
      <trkpt lat="43.52762" lon="2.30334">
        <ele>201.47071023029</ele>
        <time>2021-04-13T09:38:04Z</time>
      </trkpt>
      <trkpt lat="43.52763" lon="2.30322">
        <ele>201.514144737</ele>
        <time>2021-04-13T09:38:11Z</time>
      </trkpt>
      <trkpt lat="43.52766" lon="2.30312">
        <ele>200.65518569008</ele>
        <time>2021-04-13T09:38:18Z</time>
      </trkpt>
      <trkpt lat="43.52769" lon="2.30301">
        <ele>200.01095081128</ele>
        <time>2021-04-13T09:38:26Z</time>
      </trkpt>
      <trkpt lat="43.52768" lon="2.3029">
        <ele>200.32899717465</ele>
        <time>2021-04-13T09:38:32Z</time>
      </trkpt>
      <trkpt lat="43.52765" lon="2.30279">
        <ele>199.60749700451</ele>
        <time>2021-04-13T09:38:38Z</time>
      </trkpt>
      <trkpt lat="43.52763" lon="2.30268">
        <ele>199.22085845293</ele>
        <time>2021-04-13T09:38:44Z</time>
      </trkpt>
      <trkpt lat="43.52763" lon="2.30257">
        <ele>198.7555089635</ele>
        <time>2021-04-13T09:38:50Z</time>
      </trkpt>
      <trkpt lat="43.52764" lon="2.30246">
        <ele>197.71604864494</ele>
        <time>2021-04-13T09:38:55Z</time>
      </trkpt>
      <trkpt lat="43.52765" lon="2.30234">
        <ele>196.75956543559</ele>
        <time>2021-04-13T09:39:02Z</time>
      </trkpt>
      <trkpt lat="43.52766" lon="2.30222">
        <ele>194.93434554939</ele>
        <time>2021-04-13T09:39:09Z</time>
      </trkpt>
      <trkpt lat="43.52767" lon="2.3021">
        <ele>193.98031451387</ele>
        <time>2021-04-13T09:39:16Z</time>
      </trkpt>
      <trkpt lat="43.5277" lon="2.302">
        <ele>192.11907014571</ele>
        <time>2021-04-13T09:39:23Z</time>
      </trkpt>
      <trkpt lat="43.52774" lon="2.30189">
        <ele>191.03887603421</ele>
        <time>2021-04-13T09:39:30Z</time>
      </trkpt>
      <trkpt lat="43.52778" lon="2.30179">
        <ele>191.07317443671</ele>
        <time>2021-04-13T09:39:36Z</time>
      </trkpt>
      <trkpt lat="43.52782" lon="2.30169">
        <ele>191.6875757365</ele>
        <time>2021-04-13T09:39:43Z</time>
      </trkpt>
      <trkpt lat="43.52782" lon="2.30157">
        <ele>191.54924197315</ele>
        <time>2021-04-13T09:39:49Z</time>
      </trkpt>
      <trkpt lat="43.52777" lon="2.30148">
        <ele>192.24136988433</ele>
        <time>2021-04-13T09:39:57Z</time>
      </trkpt>
      <trkpt lat="43.52769" lon="2.30145">
        <ele>192.97801445885</ele>
        <time>2021-04-13T09:40:04Z</time>
      </trkpt>
      <trkpt lat="43.52761" lon="2.30149">
        <ele>192.86307384712</ele>
        <time>2021-04-13T09:40:11Z</time>
      </trkpt>
      <trkpt lat="43.52755" lon="2.30155">
        <ele>192.10173357055</ele>
        <time>2021-04-13T09:40:17Z</time>
      </trkpt>
      <trkpt lat="43.52747" lon="2.3016">
        <ele>191.88730669903</ele>
        <time>2021-04-13T09:40:23Z</time>
      </trkpt>
      <trkpt lat="43.5274" lon="2.30164">
        <ele>191.50503426028</ele>
        <time>2021-04-13T09:40:31Z</time>
      </trkpt>
      <trkpt lat="43.52732" lon="2.30169">
        <ele>190.84064654348</ele>
        <time>2021-04-13T09:40:39Z</time>
      </trkpt>
      <trkpt lat="43.52724" lon="2.30174">
        <ele>190.75908843071</ele>
        <time>2021-04-13T09:40:47Z</time>
      </trkpt>
      <trkpt lat="43.52717" lon="2.30178">
        <ele>191.03174499555</ele>
        <time>2021-04-13T09:40:54Z</time>
      </trkpt>
      <trkpt lat="43.52709" lon="2.30182">
        <ele>191.15425725539</ele>
        <time>2021-04-13T09:41:01Z</time>
      </trkpt>
      <trkpt lat="43.52701" lon="2.30187">
        <ele>190.08967862008</ele>
        <time>2021-04-13T09:41:09Z</time>
      </trkpt>
      <trkpt lat="43.52693" lon="2.30192">
        <ele>190.27821807722</ele>
        <time>2021-04-13T09:41:18Z</time>
      </trkpt>
      <trkpt lat="43.52685" lon="2.30196">
        <ele>190.94112680143</ele>
        <time>2021-04-13T09:41:27Z</time>
      </trkpt>
      <trkpt lat="43.52678" lon="2.30201">
        <ele>191.72024013183</ele>
        <time>2021-04-13T09:41:34Z</time>
      </trkpt>
      <trkpt lat="43.52669" lon="2.30205">
        <ele>192.42025968932</ele>
        <time>2021-04-13T09:42:25Z</time>
      </trkpt>
      <trkpt lat="43.52662" lon="2.30209">
        <ele>193.22393043535</ele>
        <time>2021-04-13T09:42:31Z</time>
      </trkpt>
      <trkpt lat="43.52655" lon="2.30214">
        <ele>193.51849842873</ele>
        <time>2021-04-13T09:42:38Z</time>
      </trkpt>
      <trkpt lat="43.52647" lon="2.30218">
        <ele>193.86954068038</ele>
        <time>2021-04-13T09:42:45Z</time>
      </trkpt>
      <trkpt lat="43.52639" lon="2.30222">
        <ele>194.22030623905</ele>
        <time>2021-04-13T09:42:52Z</time>
      </trkpt>
      <trkpt lat="43.52632" lon="2.30226">
        <ele>195.27421010392</ele>
        <time>2021-04-13T09:42:57Z</time>
      </trkpt>
      <trkpt lat="43.52625" lon="2.3023">
        <ele>196.11741283926</ele>
        <time>2021-04-13T09:43:02Z</time>
      </trkpt>
      <trkpt lat="43.52617" lon="2.30235">
        <ele>196.31281565458</ele>
        <time>2021-04-13T09:43:08Z</time>
      </trkpt>
      <trkpt lat="43.5261" lon="2.30239">
        <ele>197.58379085031</ele>
        <time>2021-04-13T09:43:15Z</time>
      </trkpt>
      <trkpt lat="43.52603" lon="2.30245">
        <ele>199.32003178945</ele>
        <time>2021-04-13T09:43:22Z</time>
      </trkpt>
      <trkpt lat="43.52596" lon="2.3025">
        <ele>200.44138604951</ele>
        <time>2021-04-13T09:43:30Z</time>
      </trkpt>
      <trkpt lat="43.52588" lon="2.30256">
        <ele>201.87901426706</ele>
        <time>2021-04-13T09:43:38Z</time>
      </trkpt>
      <trkpt lat="43.5258" lon="2.30259">
        <ele>201.87043440543</ele>
        <time>2021-04-13T09:43:45Z</time>
      </trkpt>
      <trkpt lat="43.52573" lon="2.30263">
        <ele>201.59444820168</ele>
        <time>2021-04-13T09:43:51Z</time>
      </trkpt>
      <trkpt lat="43.52565" lon="2.30267">
        <ele>200.38761213575</ele>
        <time>2021-04-13T09:43:57Z</time>
      </trkpt>
      <trkpt lat="43.52557" lon="2.30272">
        <ele>199.33635075796</ele>
        <time>2021-04-13T09:44:03Z</time>
      </trkpt>
      <trkpt lat="43.52549" lon="2.30278">
        <ele>199.16419922858</ele>
        <time>2021-04-13T09:44:10Z</time>
      </trkpt>
      <trkpt lat="43.52541" lon="2.30282">
        <ele>198.82787985441</ele>
        <time>2021-04-13T09:44:16Z</time>
      </trkpt>
      <trkpt lat="43.52535" lon="2.30288">
        <ele>198.13709452175</ele>
        <time>2021-04-13T09:44:35Z</time>
      </trkpt>
      <trkpt lat="43.52527" lon="2.30293">
        <ele>198.50647714946</ele>
        <time>2021-04-13T09:44:41Z</time>
      </trkpt>
      <trkpt lat="43.52519" lon="2.30297">
        <ele>197.92793098951</ele>
        <time>2021-04-13T09:44:50Z</time>
      </trkpt>
      <trkpt lat="43.52511" lon="2.303">
        <ele>198.07408529093</ele>
        <time>2021-04-13T09:44:57Z</time>
      </trkpt>
      <trkpt lat="43.52503" lon="2.30304">
        <ele>199.17247338897</ele>
        <time>2021-04-13T09:45:04Z</time>
      </trkpt>
      <trkpt lat="43.52495" lon="2.30307">
        <ele>199.63763635872</ele>
        <time>2021-04-13T09:45:11Z</time>
      </trkpt>
      <trkpt lat="43.52487" lon="2.30311">
        <ele>198.16692602817</ele>
        <time>2021-04-13T09:45:18Z</time>
      </trkpt>
      <trkpt lat="43.52481" lon="2.30318">
        <ele>196.4115909527</ele>
        <time>2021-04-13T09:45:25Z</time>
      </trkpt>
      <trkpt lat="43.52474" lon="2.30323">
        <ele>196.01457791257</ele>
        <time>2021-04-13T09:45:32Z</time>
      </trkpt>
      <trkpt lat="43.52465" lon="2.30327">
        <ele>194.4245737504</ele>
        <time>2021-04-13T09:45:39Z</time>
      </trkpt>
      <trkpt lat="43.52457" lon="2.30328">
        <ele>194.24202824619</ele>
        <time>2021-04-13T09:45:45Z</time>
      </trkpt>
      <trkpt lat="43.52449" lon="2.30331">
        <ele>195.33661316584</ele>
        <time>2021-04-13T09:45:52Z</time>
      </trkpt>
      <trkpt lat="43.52441" lon="2.30335">
        <ele>196.2303994658</ele>
        <time>2021-04-13T09:46:01Z</time>
      </trkpt>
      <trkpt lat="43.52432" lon="2.30338">
        <ele>197.1980904692</ele>
        <time>2021-04-13T09:46:11Z</time>
      </trkpt>
      <trkpt lat="43.52423" lon="2.30339">
        <ele>200.24794933047</ele>
        <time>2021-04-13T09:46:19Z</time>
      </trkpt>
      <trkpt lat="43.52418" lon="2.30347">
        <ele>201.97323203181</ele>
        <time>2021-04-13T09:46:28Z</time>
      </trkpt>
      <trkpt lat="43.5241" lon="2.30352">
        <ele>201.87775307559</ele>
        <time>2021-04-13T09:46:35Z</time>
      </trkpt>
      <trkpt lat="43.52402" lon="2.30355">
        <ele>202.84422930318</ele>
        <time>2021-04-13T09:46:40Z</time>
      </trkpt>
      <trkpt lat="43.52395" lon="2.30361">
        <ele>202.86550198245</ele>
        <time>2021-04-13T09:46:45Z</time>
      </trkpt>
      <trkpt lat="43.52388" lon="2.30366">
        <ele>202.28244153577</ele>
        <time>2021-04-13T09:46:51Z</time>
      </trkpt>
      <trkpt lat="43.52395" lon="2.3036">
        <ele>202.88879248553</ele>
        <time>2021-04-13T09:47:48Z</time>
      </trkpt>
      <trkpt lat="43.52403" lon="2.30356">
        <ele>201.46624595163</ele>
        <time>2021-04-13T09:47:55Z</time>
      </trkpt>
      <trkpt lat="43.52411" lon="2.30354">
        <ele>201.57305697466</ele>
        <time>2021-04-13T09:48:03Z</time>
      </trkpt>
      <trkpt lat="43.52418" lon="2.30348">
        <ele>202.82248727612</ele>
        <time>2021-04-13T09:48:11Z</time>
      </trkpt>
      <trkpt lat="43.52425" lon="2.30344">
        <ele>203.76720291139</ele>
        <time>2021-04-13T09:48:16Z</time>
      </trkpt>
      <trkpt lat="43.52432" lon="2.30336">
        <ele>206.41291840474</ele>
        <time>2021-04-13T09:48:23Z</time>
      </trkpt>
      <trkpt lat="43.52439" lon="2.3033">
        <ele>205.22569302714</ele>
        <time>2021-04-13T09:48:30Z</time>
      </trkpt>
      <trkpt lat="43.52448" lon="2.30326">
        <ele>202.4041240617</ele>
        <time>2021-04-13T09:48:37Z</time>
      </trkpt>
      <trkpt lat="43.52443" lon="2.30335">
        <ele>200.52508086028</ele>
        <time>2021-04-13T09:48:50Z</time>
      </trkpt>
      <trkpt lat="43.52437" lon="2.30345">
        <ele>198.15082190427</ele>
        <time>2021-04-13T09:49:00Z</time>
      </trkpt>
      <trkpt lat="43.52432" lon="2.30353">
        <ele>197.82941925063</ele>
        <time>2021-04-13T09:49:07Z</time>
      </trkpt>
      <trkpt lat="43.52426" lon="2.30362">
        <ele>197.6840251942</ele>
        <time>2021-04-13T09:49:13Z</time>
      </trkpt>
      <trkpt lat="43.52422" lon="2.30371">
        <ele>198.63921890981</ele>
        <time>2021-04-13T09:49:19Z</time>
      </trkpt>
      <trkpt lat="43.52416" lon="2.30379">
        <ele>197.84603467324</ele>
        <time>2021-04-13T09:49:25Z</time>
      </trkpt>
      <trkpt lat="43.5241" lon="2.30388">
        <ele>199.03788302278</ele>
        <time>2021-04-13T09:49:34Z</time>
      </trkpt>
      <trkpt lat="43.52403" lon="2.30395">
        <ele>201.13289653747</ele>
        <time>2021-04-13T09:49:43Z</time>
      </trkpt>
      <trkpt lat="43.52396" lon="2.30401">
        <ele>202.48950804123</ele>
        <time>2021-04-13T09:49:49Z</time>
      </trkpt>
      <trkpt lat="43.5239" lon="2.30407">
        <ele>202.54414382107</ele>
        <time>2021-04-13T09:49:55Z</time>
      </trkpt>
      <trkpt lat="43.52383" lon="2.30413">
        <ele>203.8164743775</ele>
        <time>2021-04-13T09:50:00Z</time>
      </trkpt>
      <trkpt lat="43.52379" lon="2.30423">
        <ele>205.08026697984</ele>
        <time>2021-04-13T09:50:06Z</time>
      </trkpt>
      <trkpt lat="43.52371" lon="2.30429">
        <ele>210.59991601029</ele>
        <time>2021-04-13T09:50:15Z</time>
      </trkpt>
      <trkpt lat="43.52365" lon="2.30437">
        <ele>214.11665476739</ele>
        <time>2021-04-13T09:50:23Z</time>
      </trkpt>
      <trkpt lat="43.52362" lon="2.30448">
        <ele>213.67713141209</ele>
        <time>2021-04-13T09:50:31Z</time>
      </trkpt>
      <trkpt lat="43.52358" lon="2.30458">
        <ele>216.42029918754</ele>
        <time>2021-04-13T09:50:39Z</time>
      </trkpt>
      <trkpt lat="43.52354" lon="2.30469">
        <ele>215.2139387679</ele>
        <time>2021-04-13T09:50:49Z</time>
      </trkpt>
      <trkpt lat="43.52353" lon="2.30481">
        <ele>213.13642041886</ele>
        <time>2021-04-13T09:50:57Z</time>
      </trkpt>
      <trkpt lat="43.52349" lon="2.30491">
        <ele>214.94271684696</ele>
        <time>2021-04-13T09:51:04Z</time>
      </trkpt>
      <trkpt lat="43.52345" lon="2.305">
        <ele>216.00439749953</ele>
        <time>2021-04-13T09:51:10Z</time>
      </trkpt>
      <trkpt lat="43.52344" lon="2.30512">
        <ele>212.10171028949</ele>
        <time>2021-04-13T09:51:19Z</time>
      </trkpt>
      <trkpt lat="43.52342" lon="2.30524">
        <ele>210.72019880642</ele>
        <time>2021-04-13T09:51:28Z</time>
      </trkpt>
      <trkpt lat="43.5234" lon="2.30535">
        <ele>210.64450787299</ele>
        <time>2021-04-13T09:51:36Z</time>
      </trkpt>
      <trkpt lat="43.52339" lon="2.30547">
        <ele>209.93346920305</ele>
        <time>2021-04-13T09:51:45Z</time>
      </trkpt>
      <trkpt lat="43.52337" lon="2.30558">
        <ele>209.77167617096</ele>
        <time>2021-04-13T09:51:53Z</time>
      </trkpt>
      <trkpt lat="43.52336" lon="2.3057">
        <ele>211.30442987687</ele>
        <time>2021-04-13T09:52:12Z</time>
      </trkpt>
      <trkpt lat="43.52336" lon="2.30581">
        <ele>213.52350351173</ele>
        <time>2021-04-13T09:52:21Z</time>
      </trkpt>
      <trkpt lat="43.52336" lon="2.30593">
        <ele>215.22269125327</ele>
        <time>2021-04-13T09:52:29Z</time>
      </trkpt>
      <trkpt lat="43.52336" lon="2.30604">
        <ele>218.06356597231</ele>
        <time>2021-04-13T09:52:35Z</time>
      </trkpt>
      <trkpt lat="43.52336" lon="2.30616">
        <ele>222.33998137687</ele>
        <time>2021-04-13T09:52:44Z</time>
      </trkpt>
      <trkpt lat="43.52335" lon="2.30627">
        <ele>224.68882423025</ele>
        <time>2021-04-13T09:52:53Z</time>
      </trkpt>
      <trkpt lat="43.52336" lon="2.30639">
        <ele>226.98026920951</ele>
        <time>2021-04-13T09:53:03Z</time>
      </trkpt>
      <trkpt lat="43.52339" lon="2.3065">
        <ele>229.22843984256</ele>
        <time>2021-04-13T09:53:13Z</time>
      </trkpt>
      <trkpt lat="43.52338" lon="2.30662">
        <ele>231.13189316874</ele>
        <time>2021-04-13T09:53:22Z</time>
      </trkpt>
      <trkpt lat="43.5234" lon="2.30674">
        <ele>231.48445446551</ele>
        <time>2021-04-13T09:53:30Z</time>
      </trkpt>
      <trkpt lat="43.52342" lon="2.30686">
        <ele>232.12514384885</ele>
        <time>2021-04-13T09:53:38Z</time>
      </trkpt>
      <trkpt lat="43.52343" lon="2.30697">
        <ele>232.72318116851</ele>
        <time>2021-04-13T09:53:45Z</time>
      </trkpt>
      <trkpt lat="43.52345" lon="2.30708">
        <ele>233.72453329242</ele>
        <time>2021-04-13T09:53:54Z</time>
      </trkpt>
      <trkpt lat="43.52346" lon="2.30719">
        <ele>235.0431121699</ele>
        <time>2021-04-13T09:54:01Z</time>
      </trkpt>
      <trkpt lat="43.52349" lon="2.30729">
        <ele>234.68019252501</ele>
        <time>2021-04-13T09:54:07Z</time>
      </trkpt>
      <trkpt lat="43.52352" lon="2.3074">
        <ele>233.40459092692</ele>
        <time>2021-04-13T09:54:14Z</time>
      </trkpt>
      <trkpt lat="43.52355" lon="2.30751">
        <ele>232.49606433997</ele>
        <time>2021-04-13T09:54:21Z</time>
      </trkpt>
      <trkpt lat="43.52356" lon="2.30763">
        <ele>231.50776002938</ele>
        <time>2021-04-13T09:54:28Z</time>
      </trkpt>
      <trkpt lat="43.52357" lon="2.30772">
        <ele>230.98164663184</ele>
        <time>2021-04-13T09:54:34Z</time>
      </trkpt>
      <trkpt lat="43.52359" lon="2.30784">
        <ele>230.28391812688</ele>
        <time>2021-04-13T09:54:41Z</time>
      </trkpt>
      <trkpt lat="43.52362" lon="2.30795">
        <ele>228.10975692504</ele>
        <time>2021-04-13T09:54:50Z</time>
      </trkpt>
      <trkpt lat="43.52363" lon="2.30807">
        <ele>227.87731521626</ele>
        <time>2021-04-13T09:54:57Z</time>
      </trkpt>
      <trkpt lat="43.52365" lon="2.30818">
        <ele>228.48580016348</ele>
        <time>2021-04-13T09:55:07Z</time>
      </trkpt>
      <trkpt lat="43.52367" lon="2.30829">
        <ele>229.5747487894</ele>
        <time>2021-04-13T09:55:18Z</time>
      </trkpt>
      <trkpt lat="43.52369" lon="2.3084">
        <ele>229.93689802796</ele>
        <time>2021-04-13T09:55:24Z</time>
      </trkpt>
      <trkpt lat="43.52372" lon="2.30852">
        <ele>229.53480610628</ele>
        <time>2021-04-13T09:55:31Z</time>
      </trkpt>
      <trkpt lat="43.52374" lon="2.30863">
        <ele>228.74037097006</ele>
        <time>2021-04-13T09:55:38Z</time>
      </trkpt>
      <trkpt lat="43.52377" lon="2.30874">
        <ele>228.34146475571</ele>
        <time>2021-04-13T09:55:45Z</time>
      </trkpt>
      <trkpt lat="43.52376" lon="2.30885">
        <ele>226.50814389507</ele>
        <time>2021-04-13T09:55:52Z</time>
      </trkpt>
      <trkpt lat="43.52377" lon="2.30896">
        <ele>226.43233427306</ele>
        <time>2021-04-13T09:56:08Z</time>
      </trkpt>
      <trkpt lat="43.52376" lon="2.30909">
        <ele>225.14685023642</ele>
        <time>2021-04-13T09:56:14Z</time>
      </trkpt>
      <trkpt lat="43.52375" lon="2.30921">
        <ele>224.65972392413</ele>
        <time>2021-04-13T09:56:20Z</time>
      </trkpt>
      <trkpt lat="43.52372" lon="2.30931">
        <ele>224.51245096725</ele>
        <time>2021-04-13T09:56:25Z</time>
      </trkpt>
      <trkpt lat="43.52373" lon="2.30941">
        <ele>222.77689616266</ele>
        <time>2021-04-13T09:56:30Z</time>
      </trkpt>
      <trkpt lat="43.52372" lon="2.30952">
        <ele>221.85472049077</ele>
        <time>2021-04-13T09:56:36Z</time>
      </trkpt>
      <trkpt lat="43.52371" lon="2.30963">
        <ele>219.08202424653</ele>
        <time>2021-04-13T09:56:43Z</time>
      </trkpt>
      <trkpt lat="43.5237" lon="2.30974">
        <ele>216.64488805405</ele>
        <time>2021-04-13T09:56:48Z</time>
      </trkpt>
      <trkpt lat="43.52368" lon="2.30985">
        <ele>215.83385793758</ele>
        <time>2021-04-13T09:56:57Z</time>
      </trkpt>
      <trkpt lat="43.52366" lon="2.30996">
        <ele>214.46895019256</ele>
        <time>2021-04-13T09:57:03Z</time>
      </trkpt>
      <trkpt lat="43.52361" lon="2.31006">
        <ele>213.59975245069</ele>
        <time>2021-04-13T09:57:15Z</time>
      </trkpt>
      <trkpt lat="43.52358" lon="2.31018">
        <ele>211.88542633395</ele>
        <time>2021-04-13T09:57:21Z</time>
      </trkpt>
      <trkpt lat="43.52354" lon="2.31027">
        <ele>211.07768503376</ele>
        <time>2021-04-13T09:57:26Z</time>
      </trkpt>
      <trkpt lat="43.52351" lon="2.31038">
        <ele>210.3125018835</ele>
        <time>2021-04-13T09:57:34Z</time>
      </trkpt>
      <trkpt lat="43.52346" lon="2.31047">
        <ele>208.3485236064</ele>
        <time>2021-04-13T09:57:45Z</time>
      </trkpt>
      <trkpt lat="43.52344" lon="2.31058">
        <ele>205.18460599892</ele>
        <time>2021-04-13T09:57:54Z</time>
      </trkpt>
      <trkpt lat="43.52339" lon="2.31068">
        <ele>204.33796156405</ele>
        <time>2021-04-13T09:58:01Z</time>
      </trkpt>
      <trkpt lat="43.52334" lon="2.31078">
        <ele>200.32896437264</ele>
        <time>2021-04-13T09:58:17Z</time>
      </trkpt>
      <trkpt lat="43.52328" lon="2.31086">
        <ele>199.23078237227</ele>
        <time>2021-04-13T09:58:25Z</time>
      </trkpt>
      <trkpt lat="43.52322" lon="2.31094">
        <ele>196.53505350306</ele>
        <time>2021-04-13T09:58:33Z</time>
      </trkpt>
      <trkpt lat="43.52317" lon="2.31104">
        <ele>194.04839155757</ele>
        <time>2021-04-13T09:58:40Z</time>
      </trkpt>
      <trkpt lat="43.52312" lon="2.31113">
        <ele>194.84763240607</ele>
        <time>2021-04-13T09:58:46Z</time>
      </trkpt>
      <trkpt lat="43.52308" lon="2.31122">
        <ele>197.58692285313</ele>
        <time>2021-04-13T09:58:53Z</time>
      </trkpt>
      <trkpt lat="43.52303" lon="2.31132">
        <ele>198.74840604272</ele>
        <time>2021-04-13T09:59:01Z</time>
      </trkpt>
      <trkpt lat="43.52298" lon="2.31141">
        <ele>198.46391680813</ele>
        <time>2021-04-13T09:59:19Z</time>
      </trkpt>
      <trkpt lat="43.52291" lon="2.31143">
        <ele>198.21921775085</ele>
        <time>2021-04-13T09:59:30Z</time>
      </trkpt>
      <trkpt lat="43.52285" lon="2.31149">
        <ele>198.39432084648</ele>
        <time>2021-04-13T09:59:35Z</time>
      </trkpt>
      <trkpt lat="43.5228" lon="2.31157">
        <ele>198.80670947896</ele>
        <time>2021-04-13T09:59:41Z</time>
      </trkpt>
      <trkpt lat="43.52274" lon="2.31166">
        <ele>198.84063467532</ele>
        <time>2021-04-13T09:59:48Z</time>
      </trkpt>
      <trkpt lat="43.52268" lon="2.31172">
        <ele>198.52230507322</ele>
        <time>2021-04-13T09:59:55Z</time>
      </trkpt>
      <trkpt lat="43.52261" lon="2.3118">
        <ele>198.83530212751</ele>
        <time>2021-04-13T10:00:04Z</time>
      </trkpt>
      <trkpt lat="43.52255" lon="2.31189">
        <ele>200.91543315019</ele>
        <time>2021-04-13T10:00:14Z</time>
      </trkpt>
      <trkpt lat="43.5225" lon="2.31197">
        <ele>201.71889242026</ele>
        <time>2021-04-13T10:00:19Z</time>
      </trkpt>
      <trkpt lat="43.52243" lon="2.31204">
        <ele>204.10942905183</ele>
        <time>2021-04-13T10:00:24Z</time>
      </trkpt>
      <trkpt lat="43.52236" lon="2.31209">
        <ele>207.28250391709</ele>
        <time>2021-04-13T10:00:30Z</time>
      </trkpt>
      <trkpt lat="43.5223" lon="2.31217">
        <ele>207.17221326499</ele>
        <time>2021-04-13T10:00:38Z</time>
      </trkpt>
      <trkpt lat="43.52224" lon="2.31226">
        <ele>204.64359565467</ele>
        <time>2021-04-13T10:00:46Z</time>
      </trkpt>
      <trkpt lat="43.52223" lon="2.31236">
        <ele>197.08894247744</ele>
        <time>2021-04-13T10:00:52Z</time>
      </trkpt>
      <trkpt lat="43.52221" lon="2.31248">
        <ele>191.6266429315</ele>
        <time>2021-04-13T10:01:00Z</time>
      </trkpt>
      <trkpt lat="43.52214" lon="2.31246">
        <ele>189.9741392264</ele>
        <time>2021-04-13T10:01:10Z</time>
      </trkpt>
      <trkpt lat="43.52206" lon="2.31242">
        <ele>194.01637937989</ele>
        <time>2021-04-13T10:01:15Z</time>
      </trkpt>
      <trkpt lat="43.522" lon="2.31236">
        <ele>194.10244750935</ele>
        <time>2021-04-13T10:01:22Z</time>
      </trkpt>
      <trkpt lat="43.52193" lon="2.31229">
        <ele>194.86644086768</ele>
        <time>2021-04-13T10:01:29Z</time>
      </trkpt>
      <trkpt lat="43.52188" lon="2.31219">
        <ele>194.74946729791</ele>
        <time>2021-04-13T10:01:37Z</time>
      </trkpt>
      <trkpt lat="43.52182" lon="2.3121">
        <ele>195.18179118296</ele>
        <time>2021-04-13T10:01:44Z</time>
      </trkpt>
      <trkpt lat="43.52177" lon="2.31203">
        <ele>196.02686835753</ele>
        <time>2021-04-13T10:01:50Z</time>
      </trkpt>
      <trkpt lat="43.52171" lon="2.31194">
        <ele>196.30807093071</ele>
        <time>2021-04-13T10:02:05Z</time>
      </trkpt>
      <trkpt lat="43.52171" lon="2.31194">
        <ele>196.30807093071</ele>
        <time>2021-04-13T10:02:05Z</time>
      </trkpt>
    </trkseg>
  </trk>
</gpx>